<?xml version="1.0" encoding="UTF-8" standalone="no" ?>
<gpx xmlns="http://www.topografix.com/GPX/1/1" xmlns:xsi="http://www.w3.org/2001/XMLSchema-instance" xsi:schemaLocation="http://www.topografix.com/GPX/1/1 http://www.topografix.com/GPX/1/1/gpx.xsd" version="1.1" creator="VisuGPX - https://www.visugpx.com">
  <metadata>
    <name>lundi 2016 08</name>
    <desc><![CDATA[cumul des lundi du mois d'aout 2016]]></desc>
  </metadata>
  <trk>
    <name><![CDATA[Rando Roller du lundi 15 août  menée par bryce]]></name>
    <trkseg>
      <trkpt lat="48.85765" lon="2.34751">
        <ele>40</ele>
        <time>2016-08-15T18:21:37.000Z</time>
      </trkpt>
      <trkpt lat="48.85777" lon="2.34751">
        <ele>40.400001525879</ele>
        <time>2016-08-15T18:21:42.000Z</time>
      </trkpt>
      <trkpt lat="48.85792" lon="2.347">
        <ele>40</ele>
        <time>2016-08-15T18:21:52.000Z</time>
      </trkpt>
      <trkpt lat="48.85811" lon="2.34637">
        <ele>45.200000762939</ele>
        <time>2016-08-15T18:22:03.000Z</time>
      </trkpt>
      <trkpt lat="48.85832" lon="2.34592">
        <ele>49</ele>
        <time>2016-08-15T18:22:21.000Z</time>
      </trkpt>
      <trkpt lat="48.85862" lon="2.34599">
        <ele>50.400001525879</ele>
        <time>2016-08-15T18:22:31.000Z</time>
      </trkpt>
      <trkpt lat="48.85886" lon="2.34538">
        <ele>49.400001525879</ele>
        <time>2016-08-15T18:22:46.000Z</time>
      </trkpt>
      <trkpt lat="48.85896" lon="2.34506">
        <ele>49.400001525879</ele>
        <time>2016-08-15T18:22:51.000Z</time>
      </trkpt>
      <trkpt lat="48.85903" lon="2.34503">
        <ele>49.799999237061</ele>
        <time>2016-08-15T18:22:53.000Z</time>
      </trkpt>
      <trkpt lat="48.85939" lon="2.3451">
        <ele>51</ele>
        <time>2016-08-15T18:23:04.000Z</time>
      </trkpt>
      <trkpt lat="48.85963" lon="2.3445">
        <ele>52.200000762939</ele>
        <time>2016-08-15T18:23:20.000Z</time>
      </trkpt>
      <trkpt lat="48.85978" lon="2.34386">
        <ele>53.200000762939</ele>
        <time>2016-08-15T18:23:32.000Z</time>
      </trkpt>
      <trkpt lat="48.85988" lon="2.34363">
        <ele>53.400001525879</ele>
        <time>2016-08-15T18:23:36.000Z</time>
      </trkpt>
      <trkpt lat="48.85992" lon="2.34349">
        <ele>53.200000762939</ele>
        <time>2016-08-15T18:23:38.000Z</time>
      </trkpt>
      <trkpt lat="48.86012" lon="2.34299">
        <ele>51.799999237061</ele>
        <time>2016-08-15T18:23:46.000Z</time>
      </trkpt>
      <trkpt lat="48.86021" lon="2.34282">
        <ele>50.200000762939</ele>
        <time>2016-08-15T18:23:49.000Z</time>
      </trkpt>
      <trkpt lat="48.86047" lon="2.34219">
        <ele>48.200000762939</ele>
        <time>2016-08-15T18:23:59.000Z</time>
      </trkpt>
      <trkpt lat="48.86069" lon="2.34151">
        <ele>48</ele>
        <time>2016-08-15T18:24:08.000Z</time>
      </trkpt>
      <trkpt lat="48.86091" lon="2.34086">
        <ele>46.599998474121</ele>
        <time>2016-08-15T18:24:17.000Z</time>
      </trkpt>
      <trkpt lat="48.86106" lon="2.34044">
        <ele>46.400001525879</ele>
        <time>2016-08-15T18:24:23.000Z</time>
      </trkpt>
      <trkpt lat="48.86127" lon="2.33981">
        <ele>48.200000762939</ele>
        <time>2016-08-15T18:24:31.000Z</time>
      </trkpt>
      <trkpt lat="48.86145" lon="2.33919">
        <ele>48.400001525879</ele>
        <time>2016-08-15T18:24:41.000Z</time>
      </trkpt>
      <trkpt lat="48.86169" lon="2.33856">
        <ele>46</ele>
        <time>2016-08-15T18:24:54.000Z</time>
      </trkpt>
      <trkpt lat="48.86171" lon="2.33849">
        <ele>45.599998474121</ele>
        <time>2016-08-15T18:24:55.000Z</time>
      </trkpt>
      <trkpt lat="48.8619" lon="2.33785">
        <ele>45.200000762939</ele>
        <time>2016-08-15T18:25:04.000Z</time>
      </trkpt>
      <trkpt lat="48.86199" lon="2.33748">
        <ele>46.799999237061</ele>
        <time>2016-08-15T18:25:09.000Z</time>
      </trkpt>
      <trkpt lat="48.86205" lon="2.33724">
        <ele>48</ele>
        <time>2016-08-15T18:25:12.000Z</time>
      </trkpt>
      <trkpt lat="48.86216" lon="2.33678">
        <ele>49.599998474121</ele>
        <time>2016-08-15T18:25:18.000Z</time>
      </trkpt>
      <trkpt lat="48.86236" lon="2.33615">
        <ele>48.400001525879</ele>
        <time>2016-08-15T18:25:28.000Z</time>
      </trkpt>
      <trkpt lat="48.86255" lon="2.3355">
        <ele>46.400001525879</ele>
        <time>2016-08-15T18:25:37.000Z</time>
      </trkpt>
      <trkpt lat="48.86278" lon="2.33489">
        <ele>44.200000762939</ele>
        <time>2016-08-15T18:25:46.000Z</time>
      </trkpt>
      <trkpt lat="48.86288" lon="2.33462">
        <ele>44.400001525879</ele>
        <time>2016-08-15T18:25:50.000Z</time>
      </trkpt>
      <trkpt lat="48.86297" lon="2.33433">
        <ele>44.599998474121</ele>
        <time>2016-08-15T18:25:54.000Z</time>
      </trkpt>
      <trkpt lat="48.86302" lon="2.33418">
        <ele>45.599998474121</ele>
        <time>2016-08-15T18:25:56.000Z</time>
      </trkpt>
      <trkpt lat="48.86316" lon="2.33382">
        <ele>48</ele>
        <time>2016-08-15T18:26:01.000Z</time>
      </trkpt>
      <trkpt lat="48.86326" lon="2.33375">
        <ele>48.599998474121</ele>
        <time>2016-08-15T18:26:03.000Z</time>
      </trkpt>
      <trkpt lat="48.86338" lon="2.33375">
        <ele>49</ele>
        <time>2016-08-15T18:26:05.000Z</time>
      </trkpt>
      <trkpt lat="48.86347" lon="2.33379">
        <ele>49.400001525879</ele>
        <time>2016-08-15T18:26:07.000Z</time>
      </trkpt>
      <trkpt lat="48.86376" lon="2.33408">
        <ele>50.599998474121</ele>
        <time>2016-08-15T18:26:17.000Z</time>
      </trkpt>
      <trkpt lat="48.86357" lon="2.33472">
        <ele>49</ele>
        <time>2016-08-15T18:26:30.000Z</time>
      </trkpt>
      <trkpt lat="48.86334" lon="2.33533">
        <ele>46.599998474121</ele>
        <time>2016-08-15T18:26:44.000Z</time>
      </trkpt>
      <trkpt lat="48.86309" lon="2.33594">
        <ele>47</ele>
        <time>2016-08-15T18:26:56.000Z</time>
      </trkpt>
      <trkpt lat="48.86297" lon="2.33649">
        <ele>46.400001525879</ele>
        <time>2016-08-15T18:27:06.000Z</time>
      </trkpt>
      <trkpt lat="48.86292" lon="2.33662">
        <ele>46.400001525879</ele>
        <time>2016-08-15T18:27:08.000Z</time>
      </trkpt>
      <trkpt lat="48.8627" lon="2.33728">
        <ele>46.400001525879</ele>
        <time>2016-08-15T18:27:18.000Z</time>
      </trkpt>
      <trkpt lat="48.86264" lon="2.33755">
        <ele>46</ele>
        <time>2016-08-15T18:27:22.000Z</time>
      </trkpt>
      <trkpt lat="48.8625" lon="2.33813">
        <ele>45.200000762939</ele>
        <time>2016-08-15T18:27:31.000Z</time>
      </trkpt>
      <trkpt lat="48.86248" lon="2.33825">
        <ele>44.599998474121</ele>
        <time>2016-08-15T18:27:33.000Z</time>
      </trkpt>
      <trkpt lat="48.86236" lon="2.33893">
        <ele>46.200000762939</ele>
        <time>2016-08-15T18:27:47.000Z</time>
      </trkpt>
      <trkpt lat="48.86214" lon="2.33954">
        <ele>47.200000762939</ele>
        <time>2016-08-15T18:28:05.000Z</time>
      </trkpt>
      <trkpt lat="48.862" lon="2.34019">
        <ele>49.400001525879</ele>
        <time>2016-08-15T18:28:19.000Z</time>
      </trkpt>
      <trkpt lat="48.86192" lon="2.34059">
        <ele>49</ele>
        <time>2016-08-15T18:28:27.000Z</time>
      </trkpt>
      <trkpt lat="48.86178" lon="2.34125">
        <ele>49.200000762939</ele>
        <time>2016-08-15T18:28:40.000Z</time>
      </trkpt>
      <trkpt lat="48.86161" lon="2.3419">
        <ele>49.400001525879</ele>
        <time>2016-08-15T18:28:55.000Z</time>
      </trkpt>
      <trkpt lat="48.86155" lon="2.34262">
        <ele>49.400001525879</ele>
        <time>2016-08-15T18:29:08.000Z</time>
      </trkpt>
      <trkpt lat="48.8614" lon="2.34331">
        <ele>50.200000762939</ele>
        <time>2016-08-15T18:29:21.000Z</time>
      </trkpt>
      <trkpt lat="48.8613" lon="2.34403">
        <ele>48.599998474121</ele>
        <time>2016-08-15T18:29:32.000Z</time>
      </trkpt>
      <trkpt lat="48.86126" lon="2.34445">
        <ele>47</ele>
        <time>2016-08-15T18:29:38.000Z</time>
      </trkpt>
      <trkpt lat="48.86111" lon="2.34502">
        <ele>50.400001525879</ele>
        <time>2016-08-15T18:29:47.000Z</time>
      </trkpt>
      <trkpt lat="48.86098" lon="2.34537">
        <ele>50.799999237061</ele>
        <time>2016-08-15T18:29:53.000Z</time>
      </trkpt>
      <trkpt lat="48.86079" lon="2.34584">
        <ele>49.400001525879</ele>
        <time>2016-08-15T18:30:02.000Z</time>
      </trkpt>
      <trkpt lat="48.86037" lon="2.34615">
        <ele>47.200000762939</ele>
        <time>2016-08-15T18:30:12.000Z</time>
      </trkpt>
      <trkpt lat="48.85995" lon="2.34653">
        <ele>46.799999237061</ele>
        <time>2016-08-15T18:30:24.000Z</time>
      </trkpt>
      <trkpt lat="48.85954" lon="2.34684">
        <ele>46.400001525879</ele>
        <time>2016-08-15T18:30:36.000Z</time>
      </trkpt>
      <trkpt lat="48.85918" lon="2.34647">
        <ele>48</ele>
        <time>2016-08-15T18:30:53.000Z</time>
      </trkpt>
      <trkpt lat="48.85915" lon="2.3464">
        <ele>48.200000762939</ele>
        <time>2016-08-15T18:31:25.000Z</time>
      </trkpt>
      <trkpt lat="48.85873" lon="2.34604">
        <ele>50</ele>
        <time>2016-08-15T18:31:39.000Z</time>
      </trkpt>
      <trkpt lat="48.85829" lon="2.34575">
        <ele>48.799999237061</ele>
        <time>2016-08-15T18:31:49.000Z</time>
      </trkpt>
      <trkpt lat="48.85821" lon="2.34583">
        <ele>48.400001525879</ele>
        <time>2016-08-15T18:31:52.000Z</time>
      </trkpt>
      <trkpt lat="48.85808" lon="2.34647">
        <ele>43.799999237061</ele>
        <time>2016-08-15T18:32:01.000Z</time>
      </trkpt>
      <trkpt lat="48.85796" lon="2.34694">
        <ele>40</ele>
        <time>2016-08-15T18:32:08.000Z</time>
      </trkpt>
      <trkpt lat="48.85752" lon="2.34692">
        <ele>39</ele>
        <time>2016-08-15T18:32:20.000Z</time>
      </trkpt>
      <trkpt lat="48.85736" lon="2.34692">
        <ele>39.799999237061</ele>
        <time>2016-08-15T18:32:40.000Z</time>
      </trkpt>
      <trkpt lat="48.85693" lon="2.34674">
        <ele>41</ele>
        <time>2016-08-15T18:32:56.000Z</time>
      </trkpt>
      <trkpt lat="48.85649" lon="2.3465">
        <ele>44.400001525879</ele>
        <time>2016-08-15T18:33:15.000Z</time>
      </trkpt>
      <trkpt lat="48.85641" lon="2.34645">
        <ele>45</ele>
        <time>2016-08-15T18:33:17.000Z</time>
      </trkpt>
      <trkpt lat="48.85632" lon="2.3464">
        <ele>45.799999237061</ele>
        <time>2016-08-15T18:33:19.000Z</time>
      </trkpt>
      <trkpt lat="48.85618" lon="2.34637">
        <ele>47</ele>
        <time>2016-08-15T18:33:22.000Z</time>
      </trkpt>
      <trkpt lat="48.85574" lon="2.34606">
        <ele>47.599998474121</ele>
        <time>2016-08-15T18:33:30.000Z</time>
      </trkpt>
      <trkpt lat="48.8553" lon="2.34575">
        <ele>46.799999237061</ele>
        <time>2016-08-15T18:33:38.000Z</time>
      </trkpt>
      <trkpt lat="48.8552" lon="2.34566">
        <ele>46.400001525879</ele>
        <time>2016-08-15T18:33:40.000Z</time>
      </trkpt>
      <trkpt lat="48.85493" lon="2.34539">
        <ele>44.400001525879</ele>
        <time>2016-08-15T18:33:46.000Z</time>
      </trkpt>
      <trkpt lat="48.85453" lon="2.34503">
        <ele>41.799999237061</ele>
        <time>2016-08-15T18:33:55.000Z</time>
      </trkpt>
      <trkpt lat="48.8544" lon="2.34504">
        <ele>41</ele>
        <time>2016-08-15T18:33:58.000Z</time>
      </trkpt>
      <trkpt lat="48.85433" lon="2.34513">
        <ele>41.200000762939</ele>
        <time>2016-08-15T18:34:00.000Z</time>
      </trkpt>
      <trkpt lat="48.85427" lon="2.34526">
        <ele>41.400001525879</ele>
        <time>2016-08-15T18:34:02.000Z</time>
      </trkpt>
      <trkpt lat="48.85417" lon="2.34553">
        <ele>41.799999237061</ele>
        <time>2016-08-15T18:34:06.000Z</time>
      </trkpt>
      <trkpt lat="48.85391" lon="2.34617">
        <ele>41.599998474121</ele>
        <time>2016-08-15T18:34:16.000Z</time>
      </trkpt>
      <trkpt lat="48.85369" lon="2.34676">
        <ele>40.599998474121</ele>
        <time>2016-08-15T18:34:26.000Z</time>
      </trkpt>
      <trkpt lat="48.85356" lon="2.34704">
        <ele>38.599998474121</ele>
        <time>2016-08-15T18:34:39.000Z</time>
      </trkpt>
      <trkpt lat="48.8531" lon="2.34686">
        <ele>42.400001525879</ele>
        <time>2016-08-15T18:34:54.000Z</time>
      </trkpt>
      <trkpt lat="48.85277" lon="2.34665">
        <ele>45.599998474121</ele>
        <time>2016-08-15T18:35:01.000Z</time>
      </trkpt>
      <trkpt lat="48.85232" lon="2.3464">
        <ele>45</ele>
        <time>2016-08-15T18:35:10.000Z</time>
      </trkpt>
      <trkpt lat="48.85188" lon="2.34617">
        <ele>44</ele>
        <time>2016-08-15T18:35:23.000Z</time>
      </trkpt>
      <trkpt lat="48.85164" lon="2.34604">
        <ele>44.400001525879</ele>
        <time>2016-08-15T18:35:29.000Z</time>
      </trkpt>
      <trkpt lat="48.85121" lon="2.3458">
        <ele>45.400001525879</ele>
        <time>2016-08-15T18:35:40.000Z</time>
      </trkpt>
      <trkpt lat="48.85079" lon="2.34551">
        <ele>49</ele>
        <time>2016-08-15T18:35:59.000Z</time>
      </trkpt>
      <trkpt lat="48.85073" lon="2.34555">
        <ele>49.400001525879</ele>
        <time>2016-08-15T18:36:08.000Z</time>
      </trkpt>
      <trkpt lat="48.85062" lon="2.34602">
        <ele>50</ele>
        <time>2016-08-15T18:36:19.000Z</time>
      </trkpt>
      <trkpt lat="48.85053" lon="2.34656">
        <ele>47</ele>
        <time>2016-08-15T18:36:27.000Z</time>
      </trkpt>
      <trkpt lat="48.8504" lon="2.34724">
        <ele>44.799999237061</ele>
        <time>2016-08-15T18:36:36.000Z</time>
      </trkpt>
      <trkpt lat="48.85024" lon="2.34797">
        <ele>42.799999237061</ele>
        <time>2016-08-15T18:36:45.000Z</time>
      </trkpt>
      <trkpt lat="48.85006" lon="2.34867">
        <ele>44</ele>
        <time>2016-08-15T18:36:54.000Z</time>
      </trkpt>
      <trkpt lat="48.84998" lon="2.34888">
        <ele>45</ele>
        <time>2016-08-15T18:36:57.000Z</time>
      </trkpt>
      <trkpt lat="48.8499" lon="2.34898">
        <ele>46.200000762939</ele>
        <time>2016-08-15T18:36:59.000Z</time>
      </trkpt>
      <trkpt lat="48.84951" lon="2.34935">
        <ele>50.200000762939</ele>
        <time>2016-08-15T18:37:09.000Z</time>
      </trkpt>
      <trkpt lat="48.84947" lon="2.34939">
        <ele>50</ele>
        <time>2016-08-15T18:37:10.000Z</time>
      </trkpt>
      <trkpt lat="48.84906" lon="2.34973">
        <ele>48.400001525879</ele>
        <time>2016-08-15T18:37:21.000Z</time>
      </trkpt>
      <trkpt lat="48.84902" lon="2.34976">
        <ele>48.599998474121</ele>
        <time>2016-08-15T18:37:22.000Z</time>
      </trkpt>
      <trkpt lat="48.8486" lon="2.35012">
        <ele>49.200000762939</ele>
        <time>2016-08-15T18:37:31.000Z</time>
      </trkpt>
      <trkpt lat="48.84823" lon="2.35043">
        <ele>49</ele>
        <time>2016-08-15T18:37:39.000Z</time>
      </trkpt>
      <trkpt lat="48.84797" lon="2.35065">
        <ele>48.799999237061</ele>
        <time>2016-08-15T18:37:45.000Z</time>
      </trkpt>
      <trkpt lat="48.84752" lon="2.35096">
        <ele>48.599998474121</ele>
        <time>2016-08-15T18:37:55.000Z</time>
      </trkpt>
      <trkpt lat="48.8474" lon="2.35106">
        <ele>48.400001525879</ele>
        <time>2016-08-15T18:37:58.000Z</time>
      </trkpt>
      <trkpt lat="48.84721" lon="2.35125">
        <ele>47.799999237061</ele>
        <time>2016-08-15T18:38:03.000Z</time>
      </trkpt>
      <trkpt lat="48.84712" lon="2.3513">
        <ele>48</ele>
        <time>2016-08-15T18:38:05.000Z</time>
      </trkpt>
      <trkpt lat="48.84704" lon="2.35135">
        <ele>48</ele>
        <time>2016-08-15T18:38:07.000Z</time>
      </trkpt>
      <trkpt lat="48.84662" lon="2.35158">
        <ele>50</ele>
        <time>2016-08-15T18:38:18.000Z</time>
      </trkpt>
      <trkpt lat="48.84616" lon="2.35175">
        <ele>55</ele>
        <time>2016-08-15T18:38:30.000Z</time>
      </trkpt>
      <trkpt lat="48.84611" lon="2.35176">
        <ele>55.400001525879</ele>
        <time>2016-08-15T18:38:31.000Z</time>
      </trkpt>
      <trkpt lat="48.84598" lon="2.35182">
        <ele>56.400001525879</ele>
        <time>2016-08-15T18:38:34.000Z</time>
      </trkpt>
      <trkpt lat="48.84562" lon="2.35197">
        <ele>58.200000762939</ele>
        <time>2016-08-15T18:38:42.000Z</time>
      </trkpt>
      <trkpt lat="48.84514" lon="2.35214">
        <ele>57.200000762939</ele>
        <time>2016-08-15T18:38:52.000Z</time>
      </trkpt>
      <trkpt lat="48.84467" lon="2.35231">
        <ele>57.400001525879</ele>
        <time>2016-08-15T18:39:03.000Z</time>
      </trkpt>
      <trkpt lat="48.84422" lon="2.35237">
        <ele>57.200000762939</ele>
        <time>2016-08-15T18:39:17.000Z</time>
      </trkpt>
      <trkpt lat="48.84375" lon="2.35227">
        <ele>58.200000762939</ele>
        <time>2016-08-15T18:39:29.000Z</time>
      </trkpt>
      <trkpt lat="48.84327" lon="2.35215">
        <ele>58.200000762939</ele>
        <time>2016-08-15T18:39:40.000Z</time>
      </trkpt>
      <trkpt lat="48.84277" lon="2.35207">
        <ele>56.599998474121</ele>
        <time>2016-08-15T18:39:51.000Z</time>
      </trkpt>
      <trkpt lat="48.84232" lon="2.35197">
        <ele>54.599998474121</ele>
        <time>2016-08-15T18:39:58.000Z</time>
      </trkpt>
      <trkpt lat="48.84185" lon="2.35196">
        <ele>51</ele>
        <time>2016-08-15T18:40:04.000Z</time>
      </trkpt>
      <trkpt lat="48.84134" lon="2.352">
        <ele>47</ele>
        <time>2016-08-15T18:40:10.000Z</time>
      </trkpt>
      <trkpt lat="48.84081" lon="2.35195">
        <ele>45.200000762939</ele>
        <time>2016-08-15T18:40:16.000Z</time>
      </trkpt>
      <trkpt lat="48.84039" lon="2.35173">
        <ele>43.599998474121</ele>
        <time>2016-08-15T18:40:21.000Z</time>
      </trkpt>
      <trkpt lat="48.8399" lon="2.35151">
        <ele>42.799999237061</ele>
        <time>2016-08-15T18:40:27.000Z</time>
      </trkpt>
      <trkpt lat="48.83944" lon="2.35125">
        <ele>42.599998474121</ele>
        <time>2016-08-15T18:40:33.000Z</time>
      </trkpt>
      <trkpt lat="48.83903" lon="2.35095">
        <ele>44.400001525879</ele>
        <time>2016-08-15T18:40:40.000Z</time>
      </trkpt>
      <trkpt lat="48.83864" lon="2.35058">
        <ele>45.200000762939</ele>
        <time>2016-08-15T18:40:52.000Z</time>
      </trkpt>
      <trkpt lat="48.83859" lon="2.35054">
        <ele>45.200000762939</ele>
        <time>2016-08-15T18:40:56.000Z</time>
      </trkpt>
      <trkpt lat="48.83819" lon="2.35088">
        <ele>47.200000762939</ele>
        <time>2016-08-15T18:41:11.000Z</time>
      </trkpt>
      <trkpt lat="48.83778" lon="2.35118">
        <ele>48.200000762939</ele>
        <time>2016-08-15T18:41:22.000Z</time>
      </trkpt>
      <trkpt lat="48.83774" lon="2.35121">
        <ele>48.400001525879</ele>
        <time>2016-08-15T18:41:23.000Z</time>
      </trkpt>
      <trkpt lat="48.83731" lon="2.35152">
        <ele>47.799999237061</ele>
        <time>2016-08-15T18:41:34.000Z</time>
      </trkpt>
      <trkpt lat="48.83686" lon="2.35176">
        <ele>48.400001525879</ele>
        <time>2016-08-15T18:41:49.000Z</time>
      </trkpt>
      <trkpt lat="48.83645" lon="2.35206">
        <ele>49.599998474121</ele>
        <time>2016-08-15T18:42:00.000Z</time>
      </trkpt>
      <trkpt lat="48.83602" lon="2.35237">
        <ele>51.400001525879</ele>
        <time>2016-08-15T18:42:12.000Z</time>
      </trkpt>
      <trkpt lat="48.83561" lon="2.35267">
        <ele>51.599998474121</ele>
        <time>2016-08-15T18:42:23.000Z</time>
      </trkpt>
      <trkpt lat="48.8355" lon="2.35276">
        <ele>51.799999237061</ele>
        <time>2016-08-15T18:42:26.000Z</time>
      </trkpt>
      <trkpt lat="48.83506" lon="2.3531">
        <ele>53.200000762939</ele>
        <time>2016-08-15T18:42:38.000Z</time>
      </trkpt>
      <trkpt lat="48.83463" lon="2.35335">
        <ele>55.799999237061</ele>
        <time>2016-08-15T18:42:49.000Z</time>
      </trkpt>
      <trkpt lat="48.83422" lon="2.35364">
        <ele>58.400001525879</ele>
        <time>2016-08-15T18:43:02.000Z</time>
      </trkpt>
      <trkpt lat="48.83379" lon="2.35395">
        <ele>60</ele>
        <time>2016-08-15T18:43:16.000Z</time>
      </trkpt>
      <trkpt lat="48.83336" lon="2.35421">
        <ele>60.599998474121</ele>
        <time>2016-08-15T18:43:29.000Z</time>
      </trkpt>
      <trkpt lat="48.83292" lon="2.35452">
        <ele>62</ele>
        <time>2016-08-15T18:43:44.000Z</time>
      </trkpt>
      <trkpt lat="48.83251" lon="2.35487">
        <ele>62.799999237061</ele>
        <time>2016-08-15T18:43:59.000Z</time>
      </trkpt>
      <trkpt lat="48.8323" lon="2.35494">
        <ele>62.200000762939</ele>
        <time>2016-08-15T18:44:06.000Z</time>
      </trkpt>
      <trkpt lat="48.83219" lon="2.35491">
        <ele>62</ele>
        <time>2016-08-15T18:45:51.000Z</time>
      </trkpt>
      <trkpt lat="48.83196" lon="2.35503">
        <ele>61.200000762939</ele>
        <time>2016-08-15T18:46:03.000Z</time>
      </trkpt>
      <trkpt lat="48.83156" lon="2.35469">
        <ele>62.599998474121</ele>
        <time>2016-08-15T18:46:19.000Z</time>
      </trkpt>
      <trkpt lat="48.83121" lon="2.35436">
        <ele>64.199996948242</ele>
        <time>2016-08-15T18:46:40.000Z</time>
      </trkpt>
      <trkpt lat="48.83098" lon="2.35438">
        <ele>65.199996948242</ele>
        <time>2016-08-15T18:47:01.000Z</time>
      </trkpt>
      <trkpt lat="48.83078" lon="2.35496">
        <ele>66.599998474121</ele>
        <time>2016-08-15T18:47:22.000Z</time>
      </trkpt>
      <trkpt lat="48.83074" lon="2.35543">
        <ele>65.800003051758</ele>
        <time>2016-08-15T18:47:40.000Z</time>
      </trkpt>
      <trkpt lat="48.83077" lon="2.35563">
        <ele>65.800003051758</ele>
        <time>2016-08-15T18:47:48.000Z</time>
      </trkpt>
      <trkpt lat="48.83036" lon="2.35586">
        <ele>72.199996948242</ele>
        <time>2016-08-15T18:48:10.000Z</time>
      </trkpt>
      <trkpt lat="48.82989" lon="2.35608">
        <ele>70.800003051758</ele>
        <time>2016-08-15T18:48:24.000Z</time>
      </trkpt>
      <trkpt lat="48.82972" lon="2.35614">
        <ele>69.400001525879</ele>
        <time>2016-08-15T18:48:28.000Z</time>
      </trkpt>
      <trkpt lat="48.82955" lon="2.35617">
        <ele>69.400001525879</ele>
        <time>2016-08-15T18:48:32.000Z</time>
      </trkpt>
      <trkpt lat="48.8291" lon="2.35631">
        <ele>68.199996948242</ele>
        <time>2016-08-15T18:48:42.000Z</time>
      </trkpt>
      <trkpt lat="48.82864" lon="2.35648">
        <ele>68.400001525879</ele>
        <time>2016-08-15T18:48:52.000Z</time>
      </trkpt>
      <trkpt lat="48.82819" lon="2.35663">
        <ele>68.599998474121</ele>
        <time>2016-08-15T18:49:01.000Z</time>
      </trkpt>
      <trkpt lat="48.82806" lon="2.35668">
        <ele>68.400001525879</ele>
        <time>2016-08-15T18:49:04.000Z</time>
      </trkpt>
      <trkpt lat="48.82761" lon="2.35681">
        <ele>67.400001525879</ele>
        <time>2016-08-15T18:49:14.000Z</time>
      </trkpt>
      <trkpt lat="48.82715" lon="2.35695">
        <ele>67</ele>
        <time>2016-08-15T18:49:25.000Z</time>
      </trkpt>
      <trkpt lat="48.8267" lon="2.35711">
        <ele>66.800003051758</ele>
        <time>2016-08-15T18:49:36.000Z</time>
      </trkpt>
      <trkpt lat="48.82625" lon="2.3572">
        <ele>66.800003051758</ele>
        <time>2016-08-15T18:49:51.000Z</time>
      </trkpt>
      <trkpt lat="48.82577" lon="2.35732">
        <ele>66.400001525879</ele>
        <time>2016-08-15T18:50:03.000Z</time>
      </trkpt>
      <trkpt lat="48.82538" lon="2.35741">
        <ele>64</ele>
        <time>2016-08-15T18:50:12.000Z</time>
      </trkpt>
      <trkpt lat="48.82517" lon="2.35747">
        <ele>62.799999237061</ele>
        <time>2016-08-15T18:50:16.000Z</time>
      </trkpt>
      <trkpt lat="48.82509" lon="2.35742">
        <ele>62.599998474121</ele>
        <time>2016-08-15T18:50:18.000Z</time>
      </trkpt>
      <trkpt lat="48.82506" lon="2.35729">
        <ele>62.799999237061</ele>
        <time>2016-08-15T18:50:20.000Z</time>
      </trkpt>
      <trkpt lat="48.8249" lon="2.3566">
        <ele>63.200000762939</ele>
        <time>2016-08-15T18:50:30.000Z</time>
      </trkpt>
      <trkpt lat="48.82487" lon="2.35643">
        <ele>62.599998474121</ele>
        <time>2016-08-15T18:50:32.000Z</time>
      </trkpt>
      <trkpt lat="48.82476" lon="2.35576">
        <ele>59.400001525879</ele>
        <time>2016-08-15T18:50:40.000Z</time>
      </trkpt>
      <trkpt lat="48.82475" lon="2.35567">
        <ele>59</ele>
        <time>2016-08-15T18:50:41.000Z</time>
      </trkpt>
      <trkpt lat="48.82476" lon="2.3555">
        <ele>58.400001525879</ele>
        <time>2016-08-15T18:50:43.000Z</time>
      </trkpt>
      <trkpt lat="48.82481" lon="2.35531">
        <ele>57.799999237061</ele>
        <time>2016-08-15T18:50:46.000Z</time>
      </trkpt>
      <trkpt lat="48.8248" lon="2.35523">
        <ele>57.400001525879</ele>
        <time>2016-08-15T18:50:48.000Z</time>
      </trkpt>
      <trkpt lat="48.82452" lon="2.35468">
        <ele>55.400001525879</ele>
        <time>2016-08-15T18:51:01.000Z</time>
      </trkpt>
      <trkpt lat="48.82418" lon="2.35412">
        <ele>52.200000762939</ele>
        <time>2016-08-15T18:51:10.000Z</time>
      </trkpt>
      <trkpt lat="48.82397" lon="2.35363">
        <ele>51.799999237061</ele>
        <time>2016-08-15T18:51:17.000Z</time>
      </trkpt>
      <trkpt lat="48.82396" lon="2.35346">
        <ele>51.400001525879</ele>
        <time>2016-08-15T18:51:19.000Z</time>
      </trkpt>
      <trkpt lat="48.82406" lon="2.35334">
        <ele>51</ele>
        <time>2016-08-15T18:51:23.000Z</time>
      </trkpt>
      <trkpt lat="48.8245" lon="2.35354">
        <ele>52</ele>
        <time>2016-08-15T18:51:38.000Z</time>
      </trkpt>
      <trkpt lat="48.82495" lon="2.35371">
        <ele>54.599998474121</ele>
        <time>2016-08-15T18:51:59.000Z</time>
      </trkpt>
      <trkpt lat="48.8254" lon="2.35385">
        <ele>57.200000762939</ele>
        <time>2016-08-15T18:52:11.000Z</time>
      </trkpt>
      <trkpt lat="48.82556" lon="2.35375">
        <ele>58.200000762939</ele>
        <time>2016-08-15T18:52:25.000Z</time>
      </trkpt>
      <trkpt lat="48.82552" lon="2.35372">
        <ele>58</ele>
        <time>2016-08-15T18:52:30.000Z</time>
      </trkpt>
      <trkpt lat="48.8255" lon="2.35369">
        <ele>57.799999237061</ele>
        <time>2016-08-15T18:52:33.000Z</time>
      </trkpt>
      <trkpt lat="48.82544" lon="2.35332">
        <ele>57.599998474121</ele>
        <time>2016-08-15T18:52:47.000Z</time>
      </trkpt>
      <trkpt lat="48.82542" lon="2.35329">
        <ele>57.400001525879</ele>
        <time>2016-08-15T18:52:50.000Z</time>
      </trkpt>
      <trkpt lat="48.82535" lon="2.35336">
        <ele>57.400001525879</ele>
        <time>2016-08-15T18:52:59.000Z</time>
      </trkpt>
      <trkpt lat="48.82532" lon="2.3534">
        <ele>57.400001525879</ele>
        <time>2016-08-15T18:53:03.000Z</time>
      </trkpt>
      <trkpt lat="48.82527" lon="2.35344">
        <ele>57</ele>
        <time>2016-08-15T18:53:08.000Z</time>
      </trkpt>
      <trkpt lat="48.82523" lon="2.35344">
        <ele>56.799999237061</ele>
        <time>2016-08-15T18:53:12.000Z</time>
      </trkpt>
      <trkpt lat="48.82526" lon="2.35345">
        <ele>57</ele>
        <time>2016-08-15T18:53:34.000Z</time>
      </trkpt>
      <trkpt lat="48.82532" lon="2.35343">
        <ele>57.400001525879</ele>
        <time>2016-08-15T18:53:41.000Z</time>
      </trkpt>
      <trkpt lat="48.82537" lon="2.35344">
        <ele>57.599998474121</ele>
        <time>2016-08-15T18:53:50.000Z</time>
      </trkpt>
      <trkpt lat="48.82557" lon="2.3537">
        <ele>58.200000762939</ele>
        <time>2016-08-15T18:54:21.000Z</time>
      </trkpt>
      <trkpt lat="48.82602" lon="2.35361">
        <ele>59.200000762939</ele>
        <time>2016-08-15T18:54:37.000Z</time>
      </trkpt>
      <trkpt lat="48.82634" lon="2.35345">
        <ele>60.200000762939</ele>
        <time>2016-08-15T18:54:44.000Z</time>
      </trkpt>
      <trkpt lat="48.82648" lon="2.35342">
        <ele>60.400001525879</ele>
        <time>2016-08-15T18:54:47.000Z</time>
      </trkpt>
      <trkpt lat="48.82675" lon="2.35338">
        <ele>61</ele>
        <time>2016-08-15T18:54:54.000Z</time>
      </trkpt>
      <trkpt lat="48.82691" lon="2.3536">
        <ele>62</ele>
        <time>2016-08-15T18:55:13.000Z</time>
      </trkpt>
      <trkpt lat="48.82695" lon="2.35361">
        <ele>62.200000762939</ele>
        <time>2016-08-15T18:55:15.000Z</time>
      </trkpt>
      <trkpt lat="48.82722" lon="2.35354">
        <ele>62.400001525879</ele>
        <time>2016-08-15T18:55:34.000Z</time>
      </trkpt>
      <trkpt lat="48.82741" lon="2.35384">
        <ele>63.599998474121</ele>
        <time>2016-08-15T18:57:19.000Z</time>
      </trkpt>
      <trkpt lat="48.82736" lon="2.3537">
        <ele>63.200000762939</ele>
        <time>2016-08-15T18:59:07.000Z</time>
      </trkpt>
      <trkpt lat="48.82773" lon="2.35326">
        <ele>64</ele>
        <time>2016-08-15T18:59:23.000Z</time>
      </trkpt>
      <trkpt lat="48.82801" lon="2.35273">
        <ele>66</ele>
        <time>2016-08-15T18:59:36.000Z</time>
      </trkpt>
      <trkpt lat="48.82801" lon="2.35266">
        <ele>65.599998474121</ele>
        <time>2016-08-15T18:59:38.000Z</time>
      </trkpt>
      <trkpt lat="48.82776" lon="2.35268">
        <ele>63.599998474121</ele>
        <time>2016-08-15T18:59:54.000Z</time>
      </trkpt>
      <trkpt lat="48.82768" lon="2.3527">
        <ele>63</ele>
        <time>2016-08-15T18:59:58.000Z</time>
      </trkpt>
      <trkpt lat="48.82767" lon="2.35259">
        <ele>62.799999237061</ele>
        <time>2016-08-15T19:01:15.000Z</time>
      </trkpt>
      <trkpt lat="48.82767" lon="2.35254">
        <ele>62.599998474121</ele>
        <time>2016-08-15T19:01:17.000Z</time>
      </trkpt>
      <trkpt lat="48.82767" lon="2.35246">
        <ele>62.599998474121</ele>
        <time>2016-08-15T19:01:20.000Z</time>
      </trkpt>
      <trkpt lat="48.82736" lon="2.35194">
        <ele>61.400001525879</ele>
        <time>2016-08-15T19:01:36.000Z</time>
      </trkpt>
      <trkpt lat="48.82733" lon="2.3519">
        <ele>61.400001525879</ele>
        <time>2016-08-15T19:01:37.000Z</time>
      </trkpt>
      <trkpt lat="48.82698" lon="2.35155">
        <ele>60.200000762939</ele>
        <time>2016-08-15T19:01:45.000Z</time>
      </trkpt>
      <trkpt lat="48.82678" lon="2.35131">
        <ele>60.799999237061</ele>
        <time>2016-08-15T19:01:50.000Z</time>
      </trkpt>
      <trkpt lat="48.82674" lon="2.35121">
        <ele>61.200000762939</ele>
        <time>2016-08-15T19:01:52.000Z</time>
      </trkpt>
      <trkpt lat="48.82673" lon="2.35099">
        <ele>62.599998474121</ele>
        <time>2016-08-15T19:01:57.000Z</time>
      </trkpt>
      <trkpt lat="48.82649" lon="2.35033">
        <ele>62.400001525879</ele>
        <time>2016-08-15T19:02:07.000Z</time>
      </trkpt>
      <trkpt lat="48.82629" lon="2.34968">
        <ele>60.200000762939</ele>
        <time>2016-08-15T19:02:15.000Z</time>
      </trkpt>
      <trkpt lat="48.82608" lon="2.34902">
        <ele>56.599998474121</ele>
        <time>2016-08-15T19:02:23.000Z</time>
      </trkpt>
      <trkpt lat="48.82587" lon="2.34841">
        <ele>53.599998474121</ele>
        <time>2016-08-15T19:02:31.000Z</time>
      </trkpt>
      <trkpt lat="48.82585" lon="2.34836">
        <ele>53.200000762939</ele>
        <time>2016-08-15T19:02:32.000Z</time>
      </trkpt>
      <trkpt lat="48.82569" lon="2.34773">
        <ele>54.599998474121</ele>
        <time>2016-08-15T19:02:46.000Z</time>
      </trkpt>
      <trkpt lat="48.82565" lon="2.34737">
        <ele>55.200000762939</ele>
        <time>2016-08-15T19:02:52.000Z</time>
      </trkpt>
      <trkpt lat="48.82579" lon="2.34664">
        <ele>55.799999237061</ele>
        <time>2016-08-15T19:03:01.000Z</time>
      </trkpt>
      <trkpt lat="48.82586" lon="2.34593">
        <ele>55.599998474121</ele>
        <time>2016-08-15T19:03:09.000Z</time>
      </trkpt>
      <trkpt lat="48.82596" lon="2.34536">
        <ele>55</ele>
        <time>2016-08-15T19:03:16.000Z</time>
      </trkpt>
      <trkpt lat="48.82605" lon="2.34523">
        <ele>54.799999237061</ele>
        <time>2016-08-15T19:03:19.000Z</time>
      </trkpt>
      <trkpt lat="48.82613" lon="2.34523">
        <ele>54.799999237061</ele>
        <time>2016-08-15T19:03:21.000Z</time>
      </trkpt>
      <trkpt lat="48.82634" lon="2.34526">
        <ele>54.400001525879</ele>
        <time>2016-08-15T19:03:25.000Z</time>
      </trkpt>
      <trkpt lat="48.82644" lon="2.34529">
        <ele>54.200000762939</ele>
        <time>2016-08-15T19:03:27.000Z</time>
      </trkpt>
      <trkpt lat="48.82662" lon="2.34533">
        <ele>54</ele>
        <time>2016-08-15T19:03:30.000Z</time>
      </trkpt>
      <trkpt lat="48.82674" lon="2.34535">
        <ele>53.799999237061</ele>
        <time>2016-08-15T19:03:32.000Z</time>
      </trkpt>
      <trkpt lat="48.8271" lon="2.34543">
        <ele>52.400001525879</ele>
        <time>2016-08-15T19:03:38.000Z</time>
      </trkpt>
      <trkpt lat="48.82756" lon="2.34552">
        <ele>50.200000762939</ele>
        <time>2016-08-15T19:03:46.000Z</time>
      </trkpt>
      <trkpt lat="48.82774" lon="2.34557">
        <ele>49.400001525879</ele>
        <time>2016-08-15T19:03:49.000Z</time>
      </trkpt>
      <trkpt lat="48.8278" lon="2.34559">
        <ele>49.200000762939</ele>
        <time>2016-08-15T19:03:50.000Z</time>
      </trkpt>
      <trkpt lat="48.82788" lon="2.34571">
        <ele>49</ele>
        <time>2016-08-15T19:03:52.000Z</time>
      </trkpt>
      <trkpt lat="48.82789" lon="2.34587">
        <ele>49.799999237061</ele>
        <time>2016-08-15T19:03:54.000Z</time>
      </trkpt>
      <trkpt lat="48.8277" lon="2.34648">
        <ele>55.799999237061</ele>
        <time>2016-08-15T19:04:19.000Z</time>
      </trkpt>
      <trkpt lat="48.8277" lon="2.34655">
        <ele>56.400001525879</ele>
        <time>2016-08-15T19:04:22.000Z</time>
      </trkpt>
      <trkpt lat="48.8276" lon="2.34698">
        <ele>58.200000762939</ele>
        <time>2016-08-15T19:04:36.000Z</time>
      </trkpt>
      <trkpt lat="48.82753" lon="2.34702">
        <ele>58.400001525879</ele>
        <time>2016-08-15T19:05:20.000Z</time>
      </trkpt>
      <trkpt lat="48.82708" lon="2.34679">
        <ele>57.599998474121</ele>
        <time>2016-08-15T19:05:34.000Z</time>
      </trkpt>
      <trkpt lat="48.82664" lon="2.34663">
        <ele>57</ele>
        <time>2016-08-15T19:05:43.000Z</time>
      </trkpt>
      <trkpt lat="48.82619" lon="2.34652">
        <ele>57</ele>
        <time>2016-08-15T19:05:51.000Z</time>
      </trkpt>
      <trkpt lat="48.82613" lon="2.34652">
        <ele>57</ele>
        <time>2016-08-15T19:05:52.000Z</time>
      </trkpt>
      <trkpt lat="48.82591" lon="2.34654">
        <ele>56</ele>
        <time>2016-08-15T19:05:56.000Z</time>
      </trkpt>
      <trkpt lat="48.82582" lon="2.34659">
        <ele>55.799999237061</ele>
        <time>2016-08-15T19:05:58.000Z</time>
      </trkpt>
      <trkpt lat="48.82564" lon="2.34719">
        <ele>54.799999237061</ele>
        <time>2016-08-15T19:06:11.000Z</time>
      </trkpt>
      <trkpt lat="48.82564" lon="2.34793">
        <ele>54</ele>
        <time>2016-08-15T19:06:24.000Z</time>
      </trkpt>
      <trkpt lat="48.82569" lon="2.34823">
        <ele>53.200000762939</ele>
        <time>2016-08-15T19:06:29.000Z</time>
      </trkpt>
      <trkpt lat="48.82577" lon="2.34884">
        <ele>55.599998474121</ele>
        <time>2016-08-15T19:06:39.000Z</time>
      </trkpt>
      <trkpt lat="48.82584" lon="2.34957">
        <ele>58.400001525879</ele>
        <time>2016-08-15T19:06:50.000Z</time>
      </trkpt>
      <trkpt lat="48.82585" lon="2.34964">
        <ele>58.599998474121</ele>
        <time>2016-08-15T19:06:51.000Z</time>
      </trkpt>
      <trkpt lat="48.82588" lon="2.35033">
        <ele>60.599998474121</ele>
        <time>2016-08-15T19:07:01.000Z</time>
      </trkpt>
      <trkpt lat="48.82595" lon="2.35104">
        <ele>59.799999237061</ele>
        <time>2016-08-15T19:07:12.000Z</time>
      </trkpt>
      <trkpt lat="48.82595" lon="2.35111">
        <ele>59.400001525879</ele>
        <time>2016-08-15T19:07:13.000Z</time>
      </trkpt>
      <trkpt lat="48.82601" lon="2.35185">
        <ele>56.599998474121</ele>
        <time>2016-08-15T19:07:24.000Z</time>
      </trkpt>
      <trkpt lat="48.82602" lon="2.35192">
        <ele>56.400001525879</ele>
        <time>2016-08-15T19:07:25.000Z</time>
      </trkpt>
      <trkpt lat="48.82602" lon="2.35205">
        <ele>56.400001525879</ele>
        <time>2016-08-15T19:07:27.000Z</time>
      </trkpt>
      <trkpt lat="48.82603" lon="2.3524">
        <ele>56</ele>
        <time>2016-08-15T19:07:32.000Z</time>
      </trkpt>
      <trkpt lat="48.82603" lon="2.35267">
        <ele>56.599998474121</ele>
        <time>2016-08-15T19:07:36.000Z</time>
      </trkpt>
      <trkpt lat="48.82605" lon="2.353">
        <ele>57.799999237061</ele>
        <time>2016-08-15T19:07:41.000Z</time>
      </trkpt>
      <trkpt lat="48.82609" lon="2.35364">
        <ele>59.599998474121</ele>
        <time>2016-08-15T19:07:51.000Z</time>
      </trkpt>
      <trkpt lat="48.82606" lon="2.35436">
        <ele>60</ele>
        <time>2016-08-15T19:08:02.000Z</time>
      </trkpt>
      <trkpt lat="48.82607" lon="2.35478">
        <ele>60</ele>
        <time>2016-08-15T19:08:09.000Z</time>
      </trkpt>
      <trkpt lat="48.82612" lon="2.35544">
        <ele>61.400001525879</ele>
        <time>2016-08-15T19:08:19.000Z</time>
      </trkpt>
      <trkpt lat="48.82611" lon="2.35552">
        <ele>61.599998474121</ele>
        <time>2016-08-15T19:08:20.000Z</time>
      </trkpt>
      <trkpt lat="48.82614" lon="2.35599">
        <ele>63</ele>
        <time>2016-08-15T19:08:27.000Z</time>
      </trkpt>
      <trkpt lat="48.82618" lon="2.35671">
        <ele>65.400001525879</ele>
        <time>2016-08-15T19:08:38.000Z</time>
      </trkpt>
      <trkpt lat="48.82619" lon="2.35708">
        <ele>66.400001525879</ele>
        <time>2016-08-15T19:09:15.000Z</time>
      </trkpt>
      <trkpt lat="48.82614" lon="2.35723">
        <ele>67</ele>
        <time>2016-08-15T19:09:21.000Z</time>
      </trkpt>
      <trkpt lat="48.82566" lon="2.35734">
        <ele>65.800003051758</ele>
        <time>2016-08-15T19:09:34.000Z</time>
      </trkpt>
      <trkpt lat="48.82517" lon="2.35748">
        <ele>62.799999237061</ele>
        <time>2016-08-15T19:09:44.000Z</time>
      </trkpt>
      <trkpt lat="48.82468" lon="2.35765">
        <ele>60.200000762939</ele>
        <time>2016-08-15T19:09:53.000Z</time>
      </trkpt>
      <trkpt lat="48.82424" lon="2.35782">
        <ele>59.599998474121</ele>
        <time>2016-08-15T19:10:01.000Z</time>
      </trkpt>
      <trkpt lat="48.82378" lon="2.35795">
        <ele>61.200000762939</ele>
        <time>2016-08-15T19:10:09.000Z</time>
      </trkpt>
      <trkpt lat="48.82331" lon="2.3581">
        <ele>62.799999237061</ele>
        <time>2016-08-15T19:10:18.000Z</time>
      </trkpt>
      <trkpt lat="48.82286" lon="2.35824">
        <ele>64.400001525879</ele>
        <time>2016-08-15T19:10:28.000Z</time>
      </trkpt>
      <trkpt lat="48.82241" lon="2.35846">
        <ele>62.599998474121</ele>
        <time>2016-08-15T19:10:41.000Z</time>
      </trkpt>
      <trkpt lat="48.82214" lon="2.35855">
        <ele>60.599998474121</ele>
        <time>2016-08-15T19:10:48.000Z</time>
      </trkpt>
      <trkpt lat="48.82168" lon="2.35861">
        <ele>60</ele>
        <time>2016-08-15T19:10:58.000Z</time>
      </trkpt>
      <trkpt lat="48.82163" lon="2.35863">
        <ele>60.200000762939</ele>
        <time>2016-08-15T19:10:59.000Z</time>
      </trkpt>
      <trkpt lat="48.82118" lon="2.35882">
        <ele>60</ele>
        <time>2016-08-15T19:11:07.000Z</time>
      </trkpt>
      <trkpt lat="48.82066" lon="2.35897">
        <ele>59.200000762939</ele>
        <time>2016-08-15T19:11:14.000Z</time>
      </trkpt>
      <trkpt lat="48.82034" lon="2.35908">
        <ele>59</ele>
        <time>2016-08-15T19:11:18.000Z</time>
      </trkpt>
      <trkpt lat="48.81983" lon="2.35933">
        <ele>61.599998474121</ele>
        <time>2016-08-15T19:11:24.000Z</time>
      </trkpt>
      <trkpt lat="48.81937" lon="2.35952">
        <ele>63</ele>
        <time>2016-08-15T19:11:31.000Z</time>
      </trkpt>
      <trkpt lat="48.81911" lon="2.35946">
        <ele>63.200000762939</ele>
        <time>2016-08-15T19:12:24.000Z</time>
      </trkpt>
      <trkpt lat="48.81864" lon="2.35963">
        <ele>61.599998474121</ele>
        <time>2016-08-15T19:12:39.000Z</time>
      </trkpt>
      <trkpt lat="48.81817" lon="2.35974">
        <ele>61.599998474121</ele>
        <time>2016-08-15T19:12:51.000Z</time>
      </trkpt>
      <trkpt lat="48.81801" lon="2.35979">
        <ele>61.599998474121</ele>
        <time>2016-08-15T19:12:55.000Z</time>
      </trkpt>
      <trkpt lat="48.8177" lon="2.35989">
        <ele>61.400001525879</ele>
        <time>2016-08-15T19:13:02.000Z</time>
      </trkpt>
      <trkpt lat="48.81752" lon="2.35997">
        <ele>61</ele>
        <time>2016-08-15T19:13:06.000Z</time>
      </trkpt>
      <trkpt lat="48.81723" lon="2.36009">
        <ele>61.200000762939</ele>
        <time>2016-08-15T19:13:12.000Z</time>
      </trkpt>
      <trkpt lat="48.81678" lon="2.36026">
        <ele>61.400001525879</ele>
        <time>2016-08-15T19:13:21.000Z</time>
      </trkpt>
      <trkpt lat="48.81669" lon="2.36027">
        <ele>61.799999237061</ele>
        <time>2016-08-15T19:13:23.000Z</time>
      </trkpt>
      <trkpt lat="48.81621" lon="2.36023">
        <ele>63.400001525879</ele>
        <time>2016-08-15T19:13:33.000Z</time>
      </trkpt>
      <trkpt lat="48.81603" lon="2.36027">
        <ele>63.799999237061</ele>
        <time>2016-08-15T19:13:37.000Z</time>
      </trkpt>
      <trkpt lat="48.81564" lon="2.36055">
        <ele>64.599998474121</ele>
        <time>2016-08-15T19:13:46.000Z</time>
      </trkpt>
      <trkpt lat="48.81528" lon="2.36068">
        <ele>65.800003051758</ele>
        <time>2016-08-15T19:13:53.000Z</time>
      </trkpt>
      <trkpt lat="48.81519" lon="2.36063">
        <ele>66</ele>
        <time>2016-08-15T19:13:55.000Z</time>
      </trkpt>
      <trkpt lat="48.81481" lon="2.3602">
        <ele>65.599998474121</ele>
        <time>2016-08-15T19:14:07.000Z</time>
      </trkpt>
      <trkpt lat="48.81472" lon="2.36014">
        <ele>65.400001525879</ele>
        <time>2016-08-15T19:14:09.000Z</time>
      </trkpt>
      <trkpt lat="48.81433" lon="2.35977">
        <ele>65.599998474121</ele>
        <time>2016-08-15T19:14:20.000Z</time>
      </trkpt>
      <trkpt lat="48.81392" lon="2.35941">
        <ele>67</ele>
        <time>2016-08-15T19:14:32.000Z</time>
      </trkpt>
      <trkpt lat="48.81374" lon="2.35927">
        <ele>67.400001525879</ele>
        <time>2016-08-15T19:14:36.000Z</time>
      </trkpt>
      <trkpt lat="48.81329" lon="2.35896">
        <ele>68.199996948242</ele>
        <time>2016-08-15T19:14:46.000Z</time>
      </trkpt>
      <trkpt lat="48.81315" lon="2.35885">
        <ele>68.199996948242</ele>
        <time>2016-08-15T19:14:49.000Z</time>
      </trkpt>
      <trkpt lat="48.81306" lon="2.35879">
        <ele>68.400001525879</ele>
        <time>2016-08-15T19:14:51.000Z</time>
      </trkpt>
      <trkpt lat="48.81266" lon="2.35846">
        <ele>68.599998474121</ele>
        <time>2016-08-15T19:15:01.000Z</time>
      </trkpt>
      <trkpt lat="48.81226" lon="2.35811">
        <ele>70.199996948242</ele>
        <time>2016-08-15T19:15:16.000Z</time>
      </trkpt>
      <trkpt lat="48.81179" lon="2.35809">
        <ele>72.400001525879</ele>
        <time>2016-08-15T19:15:35.000Z</time>
      </trkpt>
      <trkpt lat="48.81133" lon="2.35818">
        <ele>74</ele>
        <time>2016-08-15T19:15:47.000Z</time>
      </trkpt>
      <trkpt lat="48.81087" lon="2.35825">
        <ele>75.400001525879</ele>
        <time>2016-08-15T19:16:00.000Z</time>
      </trkpt>
      <trkpt lat="48.81041" lon="2.35815">
        <ele>76.400001525879</ele>
        <time>2016-08-15T19:16:15.000Z</time>
      </trkpt>
      <trkpt lat="48.81023" lon="2.35814">
        <ele>76.800003051758</ele>
        <time>2016-08-15T19:16:21.000Z</time>
      </trkpt>
      <trkpt lat="48.80977" lon="2.3581">
        <ele>78.599998474121</ele>
        <time>2016-08-15T19:16:36.000Z</time>
      </trkpt>
      <trkpt lat="48.80954" lon="2.3582">
        <ele>79.400001525879</ele>
        <time>2016-08-15T19:17:01.000Z</time>
      </trkpt>
      <trkpt lat="48.80911" lon="2.35805">
        <ele>81.599998474121</ele>
        <time>2016-08-15T19:17:21.000Z</time>
      </trkpt>
      <trkpt lat="48.80872" lon="2.3577">
        <ele>84</ele>
        <time>2016-08-15T19:17:39.000Z</time>
      </trkpt>
      <trkpt lat="48.80836" lon="2.35729">
        <ele>87</ele>
        <time>2016-08-15T19:17:57.000Z</time>
      </trkpt>
      <trkpt lat="48.80801" lon="2.35685">
        <ele>90.800003051758</ele>
        <time>2016-08-15T19:18:19.000Z</time>
      </trkpt>
      <trkpt lat="48.80771" lon="2.35631">
        <ele>95.400001525879</ele>
        <time>2016-08-15T19:18:39.000Z</time>
      </trkpt>
      <trkpt lat="48.8075" lon="2.35568">
        <ele>99</ele>
        <time>2016-08-15T19:18:57.000Z</time>
      </trkpt>
      <trkpt lat="48.80732" lon="2.35531">
        <ele>100.80000305176</ele>
        <time>2016-08-15T19:19:55.000Z</time>
      </trkpt>
      <trkpt lat="48.80697" lon="2.35496">
        <ele>104</ele>
        <time>2016-08-15T19:20:15.000Z</time>
      </trkpt>
      <trkpt lat="48.80702" lon="2.35498">
        <ele>103.59999847412</ele>
        <time>2016-08-15T19:21:16.000Z</time>
      </trkpt>
      <trkpt lat="48.80703" lon="2.35506">
        <ele>103.59999847412</ele>
        <time>2016-08-15T19:21:23.000Z</time>
      </trkpt>
      <trkpt lat="48.80701" lon="2.35436">
        <ele>102.19999694824</ele>
        <time>2016-08-15T19:21:41.000Z</time>
      </trkpt>
      <trkpt lat="48.80698" lon="2.35366">
        <ele>102.59999847412</ele>
        <time>2016-08-15T19:21:57.000Z</time>
      </trkpt>
      <trkpt lat="48.80697" lon="2.35351">
        <ele>103</ele>
        <time>2016-08-15T19:22:06.000Z</time>
      </trkpt>
      <trkpt lat="48.80706" lon="2.35341">
        <ele>102.40000152588</ele>
        <time>2016-08-15T19:23:43.000Z</time>
      </trkpt>
      <trkpt lat="48.80697" lon="2.35349">
        <ele>103</ele>
        <time>2016-08-15T19:23:50.000Z</time>
      </trkpt>
      <trkpt lat="48.80696" lon="2.35356">
        <ele>103</ele>
        <time>2016-08-15T19:23:52.000Z</time>
      </trkpt>
      <trkpt lat="48.80701" lon="2.35426">
        <ele>101.80000305176</ele>
        <time>2016-08-15T19:24:06.000Z</time>
      </trkpt>
      <trkpt lat="48.80709" lon="2.35495">
        <ele>102.80000305176</ele>
        <time>2016-08-15T19:24:21.000Z</time>
      </trkpt>
      <trkpt lat="48.80738" lon="2.35523">
        <ele>100</ele>
        <time>2016-08-15T19:24:44.000Z</time>
      </trkpt>
      <trkpt lat="48.80741" lon="2.35519">
        <ele>99.599998474121</ele>
        <time>2016-08-15T19:24:49.000Z</time>
      </trkpt>
      <trkpt lat="48.80739" lon="2.3545">
        <ele>98.599998474121</ele>
        <time>2016-08-15T19:25:02.000Z</time>
      </trkpt>
      <trkpt lat="48.80729" lon="2.35381">
        <ele>99.599998474121</ele>
        <time>2016-08-15T19:25:11.000Z</time>
      </trkpt>
      <trkpt lat="48.80718" lon="2.35311">
        <ele>101.19999694824</ele>
        <time>2016-08-15T19:25:21.000Z</time>
      </trkpt>
      <trkpt lat="48.80713" lon="2.35276">
        <ele>100.19999694824</ele>
        <time>2016-08-15T19:25:26.000Z</time>
      </trkpt>
      <trkpt lat="48.80696" lon="2.35205">
        <ele>98.199996948242</ele>
        <time>2016-08-15T19:25:36.000Z</time>
      </trkpt>
      <trkpt lat="48.80672" lon="2.35141">
        <ele>96.400001525879</ele>
        <time>2016-08-15T19:25:45.000Z</time>
      </trkpt>
      <trkpt lat="48.80651" lon="2.35078">
        <ele>96.199996948242</ele>
        <time>2016-08-15T19:25:53.000Z</time>
      </trkpt>
      <trkpt lat="48.80644" lon="2.3506">
        <ele>95.599998474121</ele>
        <time>2016-08-15T19:25:55.000Z</time>
      </trkpt>
      <trkpt lat="48.80618" lon="2.34991">
        <ele>94.599998474121</ele>
        <time>2016-08-15T19:26:02.000Z</time>
      </trkpt>
      <trkpt lat="48.80594" lon="2.34925">
        <ele>93</ele>
        <time>2016-08-15T19:26:09.000Z</time>
      </trkpt>
      <trkpt lat="48.80571" lon="2.34858">
        <ele>92.199996948242</ele>
        <time>2016-08-15T19:26:16.000Z</time>
      </trkpt>
      <trkpt lat="48.80552" lon="2.34789">
        <ele>91.599998474121</ele>
        <time>2016-08-15T19:26:23.000Z</time>
      </trkpt>
      <trkpt lat="48.80536" lon="2.34717">
        <ele>89.599998474121</ele>
        <time>2016-08-15T19:26:30.000Z</time>
      </trkpt>
      <trkpt lat="48.8052" lon="2.34648">
        <ele>88.199996948242</ele>
        <time>2016-08-15T19:26:37.000Z</time>
      </trkpt>
      <trkpt lat="48.80502" lon="2.34578">
        <ele>85.800003051758</ele>
        <time>2016-08-15T19:26:43.000Z</time>
      </trkpt>
      <trkpt lat="48.8049" lon="2.34527">
        <ele>84.400001525879</ele>
        <time>2016-08-15T19:26:49.000Z</time>
      </trkpt>
      <trkpt lat="48.80499" lon="2.34474">
        <ele>83</ele>
        <time>2016-08-15T19:28:07.000Z</time>
      </trkpt>
      <trkpt lat="48.80495" lon="2.34424">
        <ele>83</ele>
        <time>2016-08-15T19:28:17.000Z</time>
      </trkpt>
      <trkpt lat="48.8047" lon="2.34379">
        <ele>82.199996948242</ele>
        <time>2016-08-15T19:28:24.000Z</time>
      </trkpt>
      <trkpt lat="48.80437" lon="2.34318">
        <ele>80.199996948242</ele>
        <time>2016-08-15T19:28:31.000Z</time>
      </trkpt>
      <trkpt lat="48.80409" lon="2.34263">
        <ele>78</ele>
        <time>2016-08-15T19:28:37.000Z</time>
      </trkpt>
      <trkpt lat="48.80375" lon="2.34205">
        <ele>75.800003051758</ele>
        <time>2016-08-15T19:28:44.000Z</time>
      </trkpt>
      <trkpt lat="48.80345" lon="2.34152">
        <ele>73.800003051758</ele>
        <time>2016-08-15T19:28:51.000Z</time>
      </trkpt>
      <trkpt lat="48.80316" lon="2.34108">
        <ele>72.199996948242</ele>
        <time>2016-08-15T19:29:01.000Z</time>
      </trkpt>
      <trkpt lat="48.80281" lon="2.34056">
        <ele>70.400001525879</ele>
        <time>2016-08-15T19:29:11.000Z</time>
      </trkpt>
      <trkpt lat="48.80245" lon="2.34007">
        <ele>67.800003051758</ele>
        <time>2016-08-15T19:29:19.000Z</time>
      </trkpt>
      <trkpt lat="48.80219" lon="2.33967">
        <ele>66.400001525879</ele>
        <time>2016-08-15T19:29:25.000Z</time>
      </trkpt>
      <trkpt lat="48.8021" lon="2.33946">
        <ele>65.800003051758</ele>
        <time>2016-08-15T19:29:28.000Z</time>
      </trkpt>
      <trkpt lat="48.80206" lon="2.33923">
        <ele>65</ele>
        <time>2016-08-15T19:29:31.000Z</time>
      </trkpt>
      <trkpt lat="48.80219" lon="2.33867">
        <ele>66</ele>
        <time>2016-08-15T19:29:47.000Z</time>
      </trkpt>
      <trkpt lat="48.80222" lon="2.33865">
        <ele>66</ele>
        <time>2016-08-15T19:30:12.000Z</time>
      </trkpt>
      <trkpt lat="48.80267" lon="2.33833">
        <ele>60.599998474121</ele>
        <time>2016-08-15T19:30:24.000Z</time>
      </trkpt>
      <trkpt lat="48.80315" lon="2.33823">
        <ele>57.200000762939</ele>
        <time>2016-08-15T19:30:31.000Z</time>
      </trkpt>
      <trkpt lat="48.80361" lon="2.33815">
        <ele>53.599998474121</ele>
        <time>2016-08-15T19:30:37.000Z</time>
      </trkpt>
      <trkpt lat="48.80408" lon="2.33811">
        <ele>49.400001525879</ele>
        <time>2016-08-15T19:30:43.000Z</time>
      </trkpt>
      <trkpt lat="48.80457" lon="2.33807">
        <ele>46</ele>
        <time>2016-08-15T19:30:49.000Z</time>
      </trkpt>
      <trkpt lat="48.80502" lon="2.33794">
        <ele>43.799999237061</ele>
        <time>2016-08-15T19:30:55.000Z</time>
      </trkpt>
      <trkpt lat="48.80547" lon="2.33784">
        <ele>42.599998474121</ele>
        <time>2016-08-15T19:31:01.000Z</time>
      </trkpt>
      <trkpt lat="48.80591" lon="2.33771">
        <ele>43.599998474121</ele>
        <time>2016-08-15T19:31:08.000Z</time>
      </trkpt>
      <trkpt lat="48.80631" lon="2.33735">
        <ele>47</ele>
        <time>2016-08-15T19:31:21.000Z</time>
      </trkpt>
      <trkpt lat="48.80663" lon="2.33683">
        <ele>50</ele>
        <time>2016-08-15T19:31:36.000Z</time>
      </trkpt>
      <trkpt lat="48.80688" lon="2.33626">
        <ele>54.799999237061</ele>
        <time>2016-08-15T19:31:48.000Z</time>
      </trkpt>
      <trkpt lat="48.80711" lon="2.33565">
        <ele>59</ele>
        <time>2016-08-15T19:32:02.000Z</time>
      </trkpt>
      <trkpt lat="48.8073" lon="2.33502">
        <ele>61.799999237061</ele>
        <time>2016-08-15T19:32:17.000Z</time>
      </trkpt>
      <trkpt lat="48.80751" lon="2.3344">
        <ele>63.200000762939</ele>
        <time>2016-08-15T19:32:34.000Z</time>
      </trkpt>
      <trkpt lat="48.80762" lon="2.33408">
        <ele>63.400001525879</ele>
        <time>2016-08-15T19:32:43.000Z</time>
      </trkpt>
      <trkpt lat="48.80786" lon="2.33349">
        <ele>66</ele>
        <time>2016-08-15T19:33:02.000Z</time>
      </trkpt>
      <trkpt lat="48.80787" lon="2.33329">
        <ele>66.400001525879</ele>
        <time>2016-08-15T19:33:43.000Z</time>
      </trkpt>
      <trkpt lat="48.80812" lon="2.33268">
        <ele>69</ele>
        <time>2016-08-15T19:34:04.000Z</time>
      </trkpt>
      <trkpt lat="48.80833" lon="2.332">
        <ele>69</ele>
        <time>2016-08-15T19:34:20.000Z</time>
      </trkpt>
      <trkpt lat="48.80851" lon="2.33153">
        <ele>69.199996948242</ele>
        <time>2016-08-15T19:35:44.000Z</time>
      </trkpt>
      <trkpt lat="48.8087" lon="2.33091">
        <ele>71.199996948242</ele>
        <time>2016-08-15T19:36:00.000Z</time>
      </trkpt>
      <trkpt lat="48.80878" lon="2.33072">
        <ele>71.400001525879</ele>
        <time>2016-08-15T19:36:04.000Z</time>
      </trkpt>
      <trkpt lat="48.80901" lon="2.33008">
        <ele>72.400001525879</ele>
        <time>2016-08-15T19:36:15.000Z</time>
      </trkpt>
      <trkpt lat="48.80903" lon="2.33002">
        <ele>72.599998474121</ele>
        <time>2016-08-15T19:36:16.000Z</time>
      </trkpt>
      <trkpt lat="48.80924" lon="2.32938">
        <ele>74.800003051758</ele>
        <time>2016-08-15T19:36:27.000Z</time>
      </trkpt>
      <trkpt lat="48.80933" lon="2.32912">
        <ele>75.199996948242</ele>
        <time>2016-08-15T19:36:32.000Z</time>
      </trkpt>
      <trkpt lat="48.80954" lon="2.32847">
        <ele>75.199996948242</ele>
        <time>2016-08-15T19:36:45.000Z</time>
      </trkpt>
      <trkpt lat="48.80977" lon="2.32787">
        <ele>78</ele>
        <time>2016-08-15T19:36:57.000Z</time>
      </trkpt>
      <trkpt lat="48.81" lon="2.32727">
        <ele>78.800003051758</ele>
        <time>2016-08-15T19:37:12.000Z</time>
      </trkpt>
      <trkpt lat="48.81016" lon="2.32708">
        <ele>79.400001525879</ele>
        <time>2016-08-15T19:38:16.000Z</time>
      </trkpt>
      <trkpt lat="48.81021" lon="2.3267">
        <ele>80</ele>
        <time>2016-08-15T19:38:44.000Z</time>
      </trkpt>
      <trkpt lat="48.80986" lon="2.32626">
        <ele>80</ele>
        <time>2016-08-15T19:38:59.000Z</time>
      </trkpt>
      <trkpt lat="48.80961" lon="2.32578">
        <ele>80</ele>
        <time>2016-08-15T19:39:14.000Z</time>
      </trkpt>
      <trkpt lat="48.8097" lon="2.3251">
        <ele>80.800003051758</ele>
        <time>2016-08-15T19:39:28.000Z</time>
      </trkpt>
      <trkpt lat="48.80974" lon="2.32441">
        <ele>81.599998474121</ele>
        <time>2016-08-15T19:39:40.000Z</time>
      </trkpt>
      <trkpt lat="48.80977" lon="2.32369">
        <ele>81.400001525879</ele>
        <time>2016-08-15T19:39:51.000Z</time>
      </trkpt>
      <trkpt lat="48.80978" lon="2.32294">
        <ele>82</ele>
        <time>2016-08-15T19:40:00.000Z</time>
      </trkpt>
      <trkpt lat="48.80978" lon="2.32251">
        <ele>81.199996948242</ele>
        <time>2016-08-15T19:40:05.000Z</time>
      </trkpt>
      <trkpt lat="48.80977" lon="2.32214">
        <ele>82.199996948242</ele>
        <time>2016-08-15T19:40:09.000Z</time>
      </trkpt>
      <trkpt lat="48.80977" lon="2.32195">
        <ele>82.800003051758</ele>
        <time>2016-08-15T19:40:11.000Z</time>
      </trkpt>
      <trkpt lat="48.80982" lon="2.32126">
        <ele>84</ele>
        <time>2016-08-15T19:40:18.000Z</time>
      </trkpt>
      <trkpt lat="48.80989" lon="2.32055">
        <ele>85</ele>
        <time>2016-08-15T19:40:27.000Z</time>
      </trkpt>
      <trkpt lat="48.8099" lon="2.32041">
        <ele>85</ele>
        <time>2016-08-15T19:40:29.000Z</time>
      </trkpt>
      <trkpt lat="48.80992" lon="2.3202">
        <ele>84.599998474121</ele>
        <time>2016-08-15T19:40:32.000Z</time>
      </trkpt>
      <trkpt lat="48.81" lon="2.31953">
        <ele>84.599998474121</ele>
        <time>2016-08-15T19:40:42.000Z</time>
      </trkpt>
      <trkpt lat="48.81004" lon="2.31913">
        <ele>84.400001525879</ele>
        <time>2016-08-15T19:40:48.000Z</time>
      </trkpt>
      <trkpt lat="48.81001" lon="2.31844">
        <ele>84.199996948242</ele>
        <time>2016-08-15T19:40:59.000Z</time>
      </trkpt>
      <trkpt lat="48.80985" lon="2.31778">
        <ele>85.199996948242</ele>
        <time>2016-08-15T19:41:13.000Z</time>
      </trkpt>
      <trkpt lat="48.80994" lon="2.31739">
        <ele>85.599998474121</ele>
        <time>2016-08-15T19:43:41.000Z</time>
      </trkpt>
      <trkpt lat="48.8103" lon="2.31692">
        <ele>85.800003051758</ele>
        <time>2016-08-15T19:43:55.000Z</time>
      </trkpt>
      <trkpt lat="48.81067" lon="2.31642">
        <ele>83</ele>
        <time>2016-08-15T19:44:05.000Z</time>
      </trkpt>
      <trkpt lat="48.81103" lon="2.31609">
        <ele>82.400001525879</ele>
        <time>2016-08-15T19:44:13.000Z</time>
      </trkpt>
      <trkpt lat="48.81147" lon="2.31585">
        <ele>80.400001525879</ele>
        <time>2016-08-15T19:44:22.000Z</time>
      </trkpt>
      <trkpt lat="48.81193" lon="2.31576">
        <ele>78.800003051758</ele>
        <time>2016-08-15T19:44:31.000Z</time>
      </trkpt>
      <trkpt lat="48.8122" lon="2.3158">
        <ele>77.800003051758</ele>
        <time>2016-08-15T19:44:36.000Z</time>
      </trkpt>
      <trkpt lat="48.81267" lon="2.316">
        <ele>76.800003051758</ele>
        <time>2016-08-15T19:44:45.000Z</time>
      </trkpt>
      <trkpt lat="48.81277" lon="2.31604">
        <ele>76.800003051758</ele>
        <time>2016-08-15T19:44:53.000Z</time>
      </trkpt>
      <trkpt lat="48.8132" lon="2.31626">
        <ele>77</ele>
        <time>2016-08-15T19:45:06.000Z</time>
      </trkpt>
      <trkpt lat="48.8134" lon="2.31639">
        <ele>77.400001525879</ele>
        <time>2016-08-15T19:45:11.000Z</time>
      </trkpt>
      <trkpt lat="48.81382" lon="2.31665">
        <ele>77.400001525879</ele>
        <time>2016-08-15T19:45:25.000Z</time>
      </trkpt>
      <trkpt lat="48.81385" lon="2.31666">
        <ele>77.400001525879</ele>
        <time>2016-08-15T19:45:27.000Z</time>
      </trkpt>
      <trkpt lat="48.81431" lon="2.31693">
        <ele>76.599998474121</ele>
        <time>2016-08-15T19:45:41.000Z</time>
      </trkpt>
      <trkpt lat="48.8145" lon="2.31698">
        <ele>76.400001525879</ele>
        <time>2016-08-15T19:45:45.000Z</time>
      </trkpt>
      <trkpt lat="48.81459" lon="2.31702">
        <ele>76.400001525879</ele>
        <time>2016-08-15T19:45:47.000Z</time>
      </trkpt>
      <trkpt lat="48.81468" lon="2.31709">
        <ele>76.599998474121</ele>
        <time>2016-08-15T19:45:49.000Z</time>
      </trkpt>
      <trkpt lat="48.81513" lon="2.31738">
        <ele>76.800003051758</ele>
        <time>2016-08-15T19:45:59.000Z</time>
      </trkpt>
      <trkpt lat="48.81551" lon="2.3177">
        <ele>77.199996948242</ele>
        <time>2016-08-15T19:46:10.000Z</time>
      </trkpt>
      <trkpt lat="48.81563" lon="2.31777">
        <ele>77</ele>
        <time>2016-08-15T19:46:13.000Z</time>
      </trkpt>
      <trkpt lat="48.81579" lon="2.3178">
        <ele>76.800003051758</ele>
        <time>2016-08-15T19:46:16.000Z</time>
      </trkpt>
      <trkpt lat="48.81625" lon="2.31804">
        <ele>77</ele>
        <time>2016-08-15T19:46:23.000Z</time>
      </trkpt>
      <trkpt lat="48.8167" lon="2.31832">
        <ele>78</ele>
        <time>2016-08-15T19:46:29.000Z</time>
      </trkpt>
      <trkpt lat="48.81692" lon="2.31846">
        <ele>78</ele>
        <time>2016-08-15T19:46:32.000Z</time>
      </trkpt>
      <trkpt lat="48.81702" lon="2.31857">
        <ele>77.800003051758</ele>
        <time>2016-08-15T19:46:34.000Z</time>
      </trkpt>
      <trkpt lat="48.81717" lon="2.31877">
        <ele>77.599998474121</ele>
        <time>2016-08-15T19:46:37.000Z</time>
      </trkpt>
      <trkpt lat="48.8173" lon="2.31884">
        <ele>77.599998474121</ele>
        <time>2016-08-15T19:46:39.000Z</time>
      </trkpt>
      <trkpt lat="48.81776" lon="2.31909">
        <ele>77</ele>
        <time>2016-08-15T19:46:47.000Z</time>
      </trkpt>
      <trkpt lat="48.81819" lon="2.3193">
        <ele>77.199996948242</ele>
        <time>2016-08-15T19:47:02.000Z</time>
      </trkpt>
      <trkpt lat="48.8183" lon="2.31942">
        <ele>77.400001525879</ele>
        <time>2016-08-15T19:47:22.000Z</time>
      </trkpt>
      <trkpt lat="48.81839" lon="2.3195">
        <ele>77.400001525879</ele>
        <time>2016-08-15T19:47:33.000Z</time>
      </trkpt>
      <trkpt lat="48.8184" lon="2.31952">
        <ele>77.400001525879</ele>
        <time>2016-08-15T19:47:35.000Z</time>
      </trkpt>
      <trkpt lat="48.81885" lon="2.31982">
        <ele>78.599998474121</ele>
        <time>2016-08-15T19:47:48.000Z</time>
      </trkpt>
      <trkpt lat="48.81923" lon="2.32006">
        <ele>79.599998474121</ele>
        <time>2016-08-15T19:47:57.000Z</time>
      </trkpt>
      <trkpt lat="48.8197" lon="2.32025">
        <ele>80.199996948242</ele>
        <time>2016-08-15T19:48:06.000Z</time>
      </trkpt>
      <trkpt lat="48.8201" lon="2.32043">
        <ele>80</ele>
        <time>2016-08-15T19:48:13.000Z</time>
      </trkpt>
      <trkpt lat="48.82017" lon="2.3205">
        <ele>80</ele>
        <time>2016-08-15T19:48:15.000Z</time>
      </trkpt>
      <trkpt lat="48.82037" lon="2.32063">
        <ele>78.800003051758</ele>
        <time>2016-08-15T19:48:19.000Z</time>
      </trkpt>
      <trkpt lat="48.82081" lon="2.32093">
        <ele>74.599998474121</ele>
        <time>2016-08-15T19:48:30.000Z</time>
      </trkpt>
      <trkpt lat="48.82118" lon="2.32136">
        <ele>71.400001525879</ele>
        <time>2016-08-15T19:48:39.000Z</time>
      </trkpt>
      <trkpt lat="48.82122" lon="2.32141">
        <ele>71.199996948242</ele>
        <time>2016-08-15T19:48:40.000Z</time>
      </trkpt>
      <trkpt lat="48.82156" lon="2.32173">
        <ele>69.599998474121</ele>
        <time>2016-08-15T19:48:47.000Z</time>
      </trkpt>
      <trkpt lat="48.82198" lon="2.32214">
        <ele>69.199996948242</ele>
        <time>2016-08-15T19:48:56.000Z</time>
      </trkpt>
      <trkpt lat="48.82225" lon="2.32233">
        <ele>71.400001525879</ele>
        <time>2016-08-15T19:49:01.000Z</time>
      </trkpt>
      <trkpt lat="48.82267" lon="2.32259">
        <ele>75</ele>
        <time>2016-08-15T19:49:08.000Z</time>
      </trkpt>
      <trkpt lat="48.82287" lon="2.32271">
        <ele>75.599998474121</ele>
        <time>2016-08-15T19:49:11.000Z</time>
      </trkpt>
      <trkpt lat="48.82325" lon="2.32294">
        <ele>76</ele>
        <time>2016-08-15T19:49:17.000Z</time>
      </trkpt>
      <trkpt lat="48.82352" lon="2.32322">
        <ele>76.800003051758</ele>
        <time>2016-08-15T19:49:38.000Z</time>
      </trkpt>
      <trkpt lat="48.82358" lon="2.32327">
        <ele>76.800003051758</ele>
        <time>2016-08-15T19:50:01.000Z</time>
      </trkpt>
      <trkpt lat="48.82404" lon="2.32333">
        <ele>75.199996948242</ele>
        <time>2016-08-15T19:50:20.000Z</time>
      </trkpt>
      <trkpt lat="48.82447" lon="2.32347">
        <ele>74.199996948242</ele>
        <time>2016-08-15T19:50:29.000Z</time>
      </trkpt>
      <trkpt lat="48.8249" lon="2.32377">
        <ele>74.199996948242</ele>
        <time>2016-08-15T19:50:38.000Z</time>
      </trkpt>
      <trkpt lat="48.82533" lon="2.324">
        <ele>74.400001525879</ele>
        <time>2016-08-15T19:50:46.000Z</time>
      </trkpt>
      <trkpt lat="48.82577" lon="2.3242">
        <ele>73.400001525879</ele>
        <time>2016-08-15T19:50:54.000Z</time>
      </trkpt>
      <trkpt lat="48.82587" lon="2.32424">
        <ele>73.400001525879</ele>
        <time>2016-08-15T19:50:56.000Z</time>
      </trkpt>
      <trkpt lat="48.82612" lon="2.32431">
        <ele>73.400001525879</ele>
        <time>2016-08-15T19:51:01.000Z</time>
      </trkpt>
      <trkpt lat="48.82655" lon="2.32454">
        <ele>74.599998474121</ele>
        <time>2016-08-15T19:51:10.000Z</time>
      </trkpt>
      <trkpt lat="48.82697" lon="2.3248">
        <ele>75.400001525879</ele>
        <time>2016-08-15T19:51:22.000Z</time>
      </trkpt>
      <trkpt lat="48.82726" lon="2.32537">
        <ele>73.800003051758</ele>
        <time>2016-08-15T19:51:30.000Z</time>
      </trkpt>
      <trkpt lat="48.82748" lon="2.32603">
        <ele>72.199996948242</ele>
        <time>2016-08-15T19:51:41.000Z</time>
      </trkpt>
      <trkpt lat="48.82758" lon="2.32653">
        <ele>72.400001525879</ele>
        <time>2016-08-15T19:52:12.000Z</time>
      </trkpt>
      <trkpt lat="48.82758" lon="2.32665">
        <ele>72.599998474121</ele>
        <time>2016-08-15T19:52:18.000Z</time>
      </trkpt>
      <trkpt lat="48.82779" lon="2.3272">
        <ele>73.199996948242</ele>
        <time>2016-08-15T19:52:33.000Z</time>
      </trkpt>
      <trkpt lat="48.82773" lon="2.32791">
        <ele>75.599998474121</ele>
        <time>2016-08-15T19:52:43.000Z</time>
      </trkpt>
      <trkpt lat="48.82768" lon="2.32859">
        <ele>77.199996948242</ele>
        <time>2016-08-15T19:52:52.000Z</time>
      </trkpt>
      <trkpt lat="48.82768" lon="2.32907">
        <ele>77.199996948242</ele>
        <time>2016-08-15T19:52:58.000Z</time>
      </trkpt>
      <trkpt lat="48.82769" lon="2.32932">
        <ele>76.800003051758</ele>
        <time>2016-08-15T19:53:01.000Z</time>
      </trkpt>
      <trkpt lat="48.82772" lon="2.33005">
        <ele>76</ele>
        <time>2016-08-15T19:53:10.000Z</time>
      </trkpt>
      <trkpt lat="48.82772" lon="2.33074">
        <ele>75</ele>
        <time>2016-08-15T19:53:18.000Z</time>
      </trkpt>
      <trkpt lat="48.82766" lon="2.33148">
        <ele>74.199996948242</ele>
        <time>2016-08-15T19:53:27.000Z</time>
      </trkpt>
      <trkpt lat="48.82765" lon="2.33211">
        <ele>73.599998474121</ele>
        <time>2016-08-15T19:53:35.000Z</time>
      </trkpt>
      <trkpt lat="48.82773" lon="2.33252">
        <ele>72.800003051758</ele>
        <time>2016-08-15T19:53:40.000Z</time>
      </trkpt>
      <trkpt lat="48.82774" lon="2.33275">
        <ele>71.400001525879</ele>
        <time>2016-08-15T19:53:43.000Z</time>
      </trkpt>
      <trkpt lat="48.82759" lon="2.33346">
        <ele>68.599998474121</ele>
        <time>2016-08-15T19:53:51.000Z</time>
      </trkpt>
      <trkpt lat="48.82743" lon="2.33413">
        <ele>69.400001525879</ele>
        <time>2016-08-15T19:53:57.000Z</time>
      </trkpt>
      <trkpt lat="48.82728" lon="2.33488">
        <ele>67.599998474121</ele>
        <time>2016-08-15T19:54:03.000Z</time>
      </trkpt>
      <trkpt lat="48.82725" lon="2.33565">
        <ele>63.799999237061</ele>
        <time>2016-08-15T19:54:09.000Z</time>
      </trkpt>
      <trkpt lat="48.82713" lon="2.33645">
        <ele>60.599998474121</ele>
        <time>2016-08-15T19:54:15.000Z</time>
      </trkpt>
      <trkpt lat="48.82701" lon="2.33722">
        <ele>59.400001525879</ele>
        <time>2016-08-15T19:54:21.000Z</time>
      </trkpt>
      <trkpt lat="48.8269" lon="2.33798">
        <ele>59.400001525879</ele>
        <time>2016-08-15T19:54:27.000Z</time>
      </trkpt>
      <trkpt lat="48.82678" lon="2.33876">
        <ele>55.400001525879</ele>
        <time>2016-08-15T19:54:33.000Z</time>
      </trkpt>
      <trkpt lat="48.8267" lon="2.33953">
        <ele>51.400001525879</ele>
        <time>2016-08-15T19:54:39.000Z</time>
      </trkpt>
      <trkpt lat="48.82661" lon="2.34021">
        <ele>51.599998474121</ele>
        <time>2016-08-15T19:54:45.000Z</time>
      </trkpt>
      <trkpt lat="48.82654" lon="2.34095">
        <ele>52.599998474121</ele>
        <time>2016-08-15T19:54:52.000Z</time>
      </trkpt>
      <trkpt lat="48.82642" lon="2.34164">
        <ele>49.799999237061</ele>
        <time>2016-08-15T19:54:59.000Z</time>
      </trkpt>
      <trkpt lat="48.82631" lon="2.34234">
        <ele>48.799999237061</ele>
        <time>2016-08-15T19:55:07.000Z</time>
      </trkpt>
      <trkpt lat="48.82624" lon="2.34305">
        <ele>49.799999237061</ele>
        <time>2016-08-15T19:55:19.000Z</time>
      </trkpt>
      <trkpt lat="48.82604" lon="2.34369">
        <ele>51</ele>
        <time>2016-08-15T19:55:32.000Z</time>
      </trkpt>
      <trkpt lat="48.82595" lon="2.34441">
        <ele>52.799999237061</ele>
        <time>2016-08-15T19:55:51.000Z</time>
      </trkpt>
      <trkpt lat="48.82592" lon="2.34509">
        <ele>54</ele>
        <time>2016-08-15T19:56:45.000Z</time>
      </trkpt>
      <trkpt lat="48.82585" lon="2.3454">
        <ele>54.799999237061</ele>
        <time>2016-08-15T19:56:52.000Z</time>
      </trkpt>
      <trkpt lat="48.82567" lon="2.34604">
        <ele>54.200000762939</ele>
        <time>2016-08-15T19:57:02.000Z</time>
      </trkpt>
      <trkpt lat="48.82562" lon="2.34633">
        <ele>54.200000762939</ele>
        <time>2016-08-15T19:57:06.000Z</time>
      </trkpt>
      <trkpt lat="48.8255" lon="2.347">
        <ele>54.200000762939</ele>
        <time>2016-08-15T19:57:15.000Z</time>
      </trkpt>
      <trkpt lat="48.82548" lon="2.34717">
        <ele>54.599998474121</ele>
        <time>2016-08-15T19:57:17.000Z</time>
      </trkpt>
      <trkpt lat="48.82547" lon="2.34741">
        <ele>55.200000762939</ele>
        <time>2016-08-15T19:57:20.000Z</time>
      </trkpt>
      <trkpt lat="48.82549" lon="2.34792">
        <ele>54</ele>
        <time>2016-08-15T19:57:26.000Z</time>
      </trkpt>
      <trkpt lat="48.82546" lon="2.34821">
        <ele>53.200000762939</ele>
        <time>2016-08-15T19:57:29.000Z</time>
      </trkpt>
      <trkpt lat="48.82551" lon="2.34894">
        <ele>54.799999237061</ele>
        <time>2016-08-15T19:57:37.000Z</time>
      </trkpt>
      <trkpt lat="48.82556" lon="2.34954">
        <ele>57</ele>
        <time>2016-08-15T19:57:44.000Z</time>
      </trkpt>
      <trkpt lat="48.82562" lon="2.35026">
        <ele>59.200000762939</ele>
        <time>2016-08-15T19:57:52.000Z</time>
      </trkpt>
      <trkpt lat="48.82573" lon="2.35076">
        <ele>59.599998474121</ele>
        <time>2016-08-15T19:57:58.000Z</time>
      </trkpt>
      <trkpt lat="48.82578" lon="2.3515">
        <ele>56.200000762939</ele>
        <time>2016-08-15T19:58:07.000Z</time>
      </trkpt>
      <trkpt lat="48.82582" lon="2.35216">
        <ele>55.200000762939</ele>
        <time>2016-08-15T19:58:15.000Z</time>
      </trkpt>
      <trkpt lat="48.82576" lon="2.35282">
        <ele>56.599998474121</ele>
        <time>2016-08-15T19:58:22.000Z</time>
      </trkpt>
      <trkpt lat="48.82585" lon="2.35354">
        <ele>58.799999237061</ele>
        <time>2016-08-15T19:58:30.000Z</time>
      </trkpt>
      <trkpt lat="48.82591" lon="2.35424">
        <ele>59.400001525879</ele>
        <time>2016-08-15T19:58:39.000Z</time>
      </trkpt>
      <trkpt lat="48.8259" lon="2.35437">
        <ele>59.200000762939</ele>
        <time>2016-08-15T19:58:41.000Z</time>
      </trkpt>
      <trkpt lat="48.82587" lon="2.35476">
        <ele>59.200000762939</ele>
        <time>2016-08-15T19:58:46.000Z</time>
      </trkpt>
      <trkpt lat="48.8259" lon="2.35521">
        <ele>59.799999237061</ele>
        <time>2016-08-15T19:58:51.000Z</time>
      </trkpt>
      <trkpt lat="48.82593" lon="2.35545">
        <ele>60.599998474121</ele>
        <time>2016-08-15T19:58:54.000Z</time>
      </trkpt>
      <trkpt lat="48.82599" lon="2.35622">
        <ele>63.200000762939</ele>
        <time>2016-08-15T19:59:02.000Z</time>
      </trkpt>
      <trkpt lat="48.8261" lon="2.35694">
        <ele>66</ele>
        <time>2016-08-15T19:59:12.000Z</time>
      </trkpt>
      <trkpt lat="48.82612" lon="2.35708">
        <ele>66.400001525879</ele>
        <time>2016-08-15T20:02:30.000Z</time>
      </trkpt>
      <trkpt lat="48.82612" lon="2.35712">
        <ele>66.599998474121</ele>
        <time>2016-08-15T20:02:32.000Z</time>
      </trkpt>
      <trkpt lat="48.82609" lon="2.35784">
        <ele>68.199996948242</ele>
        <time>2016-08-15T20:02:47.000Z</time>
      </trkpt>
      <trkpt lat="48.82606" lon="2.35806">
        <ele>68.599998474121</ele>
        <time>2016-08-15T20:02:50.000Z</time>
      </trkpt>
      <trkpt lat="48.82606" lon="2.35821">
        <ele>68.800003051758</ele>
        <time>2016-08-15T20:02:52.000Z</time>
      </trkpt>
      <trkpt lat="48.82603" lon="2.35885">
        <ele>66.199996948242</ele>
        <time>2016-08-15T20:03:00.000Z</time>
      </trkpt>
      <trkpt lat="48.82606" lon="2.35959">
        <ele>63.400001525879</ele>
        <time>2016-08-15T20:03:09.000Z</time>
      </trkpt>
      <trkpt lat="48.82611" lon="2.36033">
        <ele>60.799999237061</ele>
        <time>2016-08-15T20:03:18.000Z</time>
      </trkpt>
      <trkpt lat="48.82622" lon="2.36106">
        <ele>58.599998474121</ele>
        <time>2016-08-15T20:03:27.000Z</time>
      </trkpt>
      <trkpt lat="48.82626" lon="2.36147">
        <ele>56.799999237061</ele>
        <time>2016-08-15T20:03:33.000Z</time>
      </trkpt>
      <trkpt lat="48.82628" lon="2.36165">
        <ele>56.200000762939</ele>
        <time>2016-08-15T20:03:36.000Z</time>
      </trkpt>
      <trkpt lat="48.82633" lon="2.36209">
        <ele>54.599998474121</ele>
        <time>2016-08-15T20:03:43.000Z</time>
      </trkpt>
      <trkpt lat="48.82635" lon="2.36222">
        <ele>53.599998474121</ele>
        <time>2016-08-15T20:03:45.000Z</time>
      </trkpt>
      <trkpt lat="48.82642" lon="2.36293">
        <ele>52</ele>
        <time>2016-08-15T20:03:56.000Z</time>
      </trkpt>
      <trkpt lat="48.82656" lon="2.36362">
        <ele>51.799999237061</ele>
        <time>2016-08-15T20:04:08.000Z</time>
      </trkpt>
      <trkpt lat="48.82663" lon="2.3643">
        <ele>54.200000762939</ele>
        <time>2016-08-15T20:04:25.000Z</time>
      </trkpt>
      <trkpt lat="48.82668" lon="2.36466">
        <ele>57.400001525879</ele>
        <time>2016-08-15T20:04:35.000Z</time>
      </trkpt>
      <trkpt lat="48.8267" lon="2.36487">
        <ele>59.200000762939</ele>
        <time>2016-08-15T20:04:38.000Z</time>
      </trkpt>
      <trkpt lat="48.82673" lon="2.36502">
        <ele>60.400001525879</ele>
        <time>2016-08-15T20:04:40.000Z</time>
      </trkpt>
      <trkpt lat="48.82675" lon="2.36517">
        <ele>60.599998474121</ele>
        <time>2016-08-15T20:04:42.000Z</time>
      </trkpt>
      <trkpt lat="48.82677" lon="2.36549">
        <ele>60.799999237061</ele>
        <time>2016-08-15T20:04:46.000Z</time>
      </trkpt>
      <trkpt lat="48.82679" lon="2.36575">
        <ele>61.200000762939</ele>
        <time>2016-08-15T20:04:49.000Z</time>
      </trkpt>
      <trkpt lat="48.82686" lon="2.36644">
        <ele>58</ele>
        <time>2016-08-15T20:04:58.000Z</time>
      </trkpt>
      <trkpt lat="48.82688" lon="2.36652">
        <ele>57.599998474121</ele>
        <time>2016-08-15T20:04:59.000Z</time>
      </trkpt>
      <trkpt lat="48.82693" lon="2.36687">
        <ele>57.599998474121</ele>
        <time>2016-08-15T20:05:04.000Z</time>
      </trkpt>
      <trkpt lat="48.827" lon="2.36755">
        <ele>60</ele>
        <time>2016-08-15T20:05:13.000Z</time>
      </trkpt>
      <trkpt lat="48.82704" lon="2.36781">
        <ele>60</ele>
        <time>2016-08-15T20:05:16.000Z</time>
      </trkpt>
      <trkpt lat="48.82707" lon="2.36796">
        <ele>59.799999237061</ele>
        <time>2016-08-15T20:05:18.000Z</time>
      </trkpt>
      <trkpt lat="48.82712" lon="2.36833">
        <ele>59.400001525879</ele>
        <time>2016-08-15T20:05:23.000Z</time>
      </trkpt>
      <trkpt lat="48.82725" lon="2.36904">
        <ele>59.599998474121</ele>
        <time>2016-08-15T20:05:34.000Z</time>
      </trkpt>
      <trkpt lat="48.82735" lon="2.36972">
        <ele>59.400001525879</ele>
        <time>2016-08-15T20:05:46.000Z</time>
      </trkpt>
      <trkpt lat="48.82747" lon="2.37045">
        <ele>58.599998474121</ele>
        <time>2016-08-15T20:05:56.000Z</time>
      </trkpt>
      <trkpt lat="48.82755" lon="2.37114">
        <ele>57.599998474121</ele>
        <time>2016-08-15T20:06:05.000Z</time>
      </trkpt>
      <trkpt lat="48.8278" lon="2.37174">
        <ele>56.799999237061</ele>
        <time>2016-08-15T20:06:19.000Z</time>
      </trkpt>
      <trkpt lat="48.82801" lon="2.37195">
        <ele>56</ele>
        <time>2016-08-15T20:06:24.000Z</time>
      </trkpt>
      <trkpt lat="48.82815" lon="2.37215">
        <ele>55.400001525879</ele>
        <time>2016-08-15T20:06:28.000Z</time>
      </trkpt>
      <trkpt lat="48.8285" lon="2.37267">
        <ele>54.400001525879</ele>
        <time>2016-08-15T20:06:37.000Z</time>
      </trkpt>
      <trkpt lat="48.82858" lon="2.3729">
        <ele>54.400001525879</ele>
        <time>2016-08-15T20:06:40.000Z</time>
      </trkpt>
      <trkpt lat="48.8289" lon="2.37345">
        <ele>54.799999237061</ele>
        <time>2016-08-15T20:06:48.000Z</time>
      </trkpt>
      <trkpt lat="48.82921" lon="2.37399">
        <ele>54.799999237061</ele>
        <time>2016-08-15T20:06:55.000Z</time>
      </trkpt>
      <trkpt lat="48.82931" lon="2.37412">
        <ele>54.799999237061</ele>
        <time>2016-08-15T20:06:57.000Z</time>
      </trkpt>
      <trkpt lat="48.82963" lon="2.37467">
        <ele>48.400001525879</ele>
        <time>2016-08-15T20:07:04.000Z</time>
      </trkpt>
      <trkpt lat="48.82989" lon="2.37532">
        <ele>42.400001525879</ele>
        <time>2016-08-15T20:07:11.000Z</time>
      </trkpt>
      <trkpt lat="48.82993" lon="2.3754">
        <ele>41.799999237061</ele>
        <time>2016-08-15T20:07:12.000Z</time>
      </trkpt>
      <trkpt lat="48.82999" lon="2.37559">
        <ele>40.400001525879</ele>
        <time>2016-08-15T20:07:14.000Z</time>
      </trkpt>
      <trkpt lat="48.83026" lon="2.37618">
        <ele>38.400001525879</ele>
        <time>2016-08-15T20:07:22.000Z</time>
      </trkpt>
      <trkpt lat="48.83044" lon="2.37655">
        <ele>39.200000762939</ele>
        <time>2016-08-15T20:07:59.000Z</time>
      </trkpt>
      <trkpt lat="48.83074" lon="2.3771">
        <ele>38.599998474121</ele>
        <time>2016-08-15T20:08:14.000Z</time>
      </trkpt>
      <trkpt lat="48.83105" lon="2.3776">
        <ele>38.200000762939</ele>
        <time>2016-08-15T20:08:24.000Z</time>
      </trkpt>
      <trkpt lat="48.83122" lon="2.37813">
        <ele>40.400001525879</ele>
        <time>2016-08-15T20:08:38.000Z</time>
      </trkpt>
      <trkpt lat="48.83119" lon="2.3781">
        <ele>40.200000762939</ele>
        <time>2016-08-15T20:08:39.000Z</time>
      </trkpt>
      <trkpt lat="48.83091" lon="2.37758">
        <ele>38</ele>
        <time>2016-08-15T20:12:15.000Z</time>
      </trkpt>
      <trkpt lat="48.83066" lon="2.37703">
        <ele>38.599998474121</ele>
        <time>2016-08-15T20:12:31.000Z</time>
      </trkpt>
      <trkpt lat="48.83068" lon="2.37697">
        <ele>38.799999237061</ele>
        <time>2016-08-15T20:12:32.000Z</time>
      </trkpt>
      <trkpt lat="48.83103" lon="2.37648">
        <ele>39.400001525879</ele>
        <time>2016-08-15T20:12:44.000Z</time>
      </trkpt>
      <trkpt lat="48.83142" lon="2.376">
        <ele>39.400001525879</ele>
        <time>2016-08-15T20:12:55.000Z</time>
      </trkpt>
      <trkpt lat="48.8318" lon="2.37556">
        <ele>39.200000762939</ele>
        <time>2016-08-15T20:13:06.000Z</time>
      </trkpt>
      <trkpt lat="48.8322" lon="2.37515">
        <ele>36.400001525879</ele>
        <time>2016-08-15T20:13:15.000Z</time>
      </trkpt>
      <trkpt lat="48.83261" lon="2.37472">
        <ele>35.799999237061</ele>
        <time>2016-08-15T20:13:24.000Z</time>
      </trkpt>
      <trkpt lat="48.83269" lon="2.37464">
        <ele>35.400001525879</ele>
        <time>2016-08-15T20:13:26.000Z</time>
      </trkpt>
      <trkpt lat="48.83278" lon="2.37453">
        <ele>35.200000762939</ele>
        <time>2016-08-15T20:13:28.000Z</time>
      </trkpt>
      <trkpt lat="48.83283" lon="2.37447">
        <ele>35</ele>
        <time>2016-08-15T20:13:29.000Z</time>
      </trkpt>
      <trkpt lat="48.83319" lon="2.37403">
        <ele>35.799999237061</ele>
        <time>2016-08-15T20:13:36.000Z</time>
      </trkpt>
      <trkpt lat="48.83364" lon="2.37363">
        <ele>36</ele>
        <time>2016-08-15T20:13:43.000Z</time>
      </trkpt>
      <trkpt lat="48.83404" lon="2.37329">
        <ele>37.200000762939</ele>
        <time>2016-08-15T20:13:49.000Z</time>
      </trkpt>
      <trkpt lat="48.83411" lon="2.37324">
        <ele>37.400001525879</ele>
        <time>2016-08-15T20:13:50.000Z</time>
      </trkpt>
      <trkpt lat="48.83455" lon="2.37285">
        <ele>40.400001525879</ele>
        <time>2016-08-15T20:13:57.000Z</time>
      </trkpt>
      <trkpt lat="48.83497" lon="2.37246">
        <ele>39.400001525879</ele>
        <time>2016-08-15T20:14:04.000Z</time>
      </trkpt>
      <trkpt lat="48.8354" lon="2.3721">
        <ele>38.400001525879</ele>
        <time>2016-08-15T20:14:11.000Z</time>
      </trkpt>
      <trkpt lat="48.83581" lon="2.37177">
        <ele>38.400001525879</ele>
        <time>2016-08-15T20:14:18.000Z</time>
      </trkpt>
      <trkpt lat="48.83617" lon="2.37154">
        <ele>38</ele>
        <time>2016-08-15T20:15:14.000Z</time>
      </trkpt>
      <trkpt lat="48.83624" lon="2.37148">
        <ele>37.200000762939</ele>
        <time>2016-08-15T20:15:17.000Z</time>
      </trkpt>
      <trkpt lat="48.83625" lon="2.37138">
        <ele>37</ele>
        <time>2016-08-15T20:15:19.000Z</time>
      </trkpt>
      <trkpt lat="48.83605" lon="2.37072">
        <ele>38</ele>
        <time>2016-08-15T20:15:31.000Z</time>
      </trkpt>
      <trkpt lat="48.83603" lon="2.37067">
        <ele>38</ele>
        <time>2016-08-15T20:15:32.000Z</time>
      </trkpt>
      <trkpt lat="48.83578" lon="2.37007">
        <ele>38.200000762939</ele>
        <time>2016-08-15T20:15:41.000Z</time>
      </trkpt>
      <trkpt lat="48.83555" lon="2.36946">
        <ele>38.799999237061</ele>
        <time>2016-08-15T20:15:49.000Z</time>
      </trkpt>
      <trkpt lat="48.83536" lon="2.36884">
        <ele>39.799999237061</ele>
        <time>2016-08-15T20:15:57.000Z</time>
      </trkpt>
      <trkpt lat="48.83522" lon="2.36839">
        <ele>41</ele>
        <time>2016-08-15T20:16:03.000Z</time>
      </trkpt>
      <trkpt lat="48.83515" lon="2.3682">
        <ele>41.200000762939</ele>
        <time>2016-08-15T20:16:06.000Z</time>
      </trkpt>
      <trkpt lat="48.83502" lon="2.36776">
        <ele>41.799999237061</ele>
        <time>2016-08-15T20:16:12.000Z</time>
      </trkpt>
      <trkpt lat="48.83492" lon="2.3675">
        <ele>42</ele>
        <time>2016-08-15T20:16:16.000Z</time>
      </trkpt>
      <trkpt lat="48.83486" lon="2.36738">
        <ele>42</ele>
        <time>2016-08-15T20:16:18.000Z</time>
      </trkpt>
      <trkpt lat="48.83478" lon="2.3672">
        <ele>41.599998474121</ele>
        <time>2016-08-15T20:16:21.000Z</time>
      </trkpt>
      <trkpt lat="48.83468" lon="2.36693">
        <ele>41</ele>
        <time>2016-08-15T20:16:25.000Z</time>
      </trkpt>
      <trkpt lat="48.83446" lon="2.36628">
        <ele>42.400001525879</ele>
        <time>2016-08-15T20:16:35.000Z</time>
      </trkpt>
      <trkpt lat="48.83425" lon="2.3656">
        <ele>45.599998474121</ele>
        <time>2016-08-15T20:16:44.000Z</time>
      </trkpt>
      <trkpt lat="48.83406" lon="2.36494">
        <ele>46</ele>
        <time>2016-08-15T20:16:52.000Z</time>
      </trkpt>
      <trkpt lat="48.834" lon="2.36471">
        <ele>46.400001525879</ele>
        <time>2016-08-15T20:16:55.000Z</time>
      </trkpt>
      <trkpt lat="48.83397" lon="2.36463">
        <ele>46.599998474121</ele>
        <time>2016-08-15T20:16:56.000Z</time>
      </trkpt>
      <trkpt lat="48.83377" lon="2.364">
        <ele>47.599998474121</ele>
        <time>2016-08-15T20:17:07.000Z</time>
      </trkpt>
      <trkpt lat="48.83371" lon="2.36384">
        <ele>48.200000762939</ele>
        <time>2016-08-15T20:17:10.000Z</time>
      </trkpt>
      <trkpt lat="48.83367" lon="2.36321">
        <ele>49.799999237061</ele>
        <time>2016-08-15T20:17:45.000Z</time>
      </trkpt>
      <trkpt lat="48.8337" lon="2.36322">
        <ele>49.799999237061</ele>
        <time>2016-08-15T20:18:42.000Z</time>
      </trkpt>
      <trkpt lat="48.83406" lon="2.36277">
        <ele>50.200000762939</ele>
        <time>2016-08-15T20:18:56.000Z</time>
      </trkpt>
      <trkpt lat="48.8341" lon="2.36271">
        <ele>50.599998474121</ele>
        <time>2016-08-15T20:18:57.000Z</time>
      </trkpt>
      <trkpt lat="48.83435" lon="2.36238">
        <ele>52.400001525879</ele>
        <time>2016-08-15T20:19:05.000Z</time>
      </trkpt>
      <trkpt lat="48.83467" lon="2.36187">
        <ele>52.799999237061</ele>
        <time>2016-08-15T20:19:16.000Z</time>
      </trkpt>
      <trkpt lat="48.83504" lon="2.36146">
        <ele>55.200000762939</ele>
        <time>2016-08-15T20:19:26.000Z</time>
      </trkpt>
      <trkpt lat="48.8352" lon="2.36126">
        <ele>57.200000762939</ele>
        <time>2016-08-15T20:19:31.000Z</time>
      </trkpt>
      <trkpt lat="48.83556" lon="2.36083">
        <ele>57.400001525879</ele>
        <time>2016-08-15T20:19:42.000Z</time>
      </trkpt>
      <trkpt lat="48.83572" lon="2.36049">
        <ele>56.400001525879</ele>
        <time>2016-08-15T20:19:48.000Z</time>
      </trkpt>
      <trkpt lat="48.83598" lon="2.3602">
        <ele>57.200000762939</ele>
        <time>2016-08-15T20:19:56.000Z</time>
      </trkpt>
      <trkpt lat="48.83609" lon="2.36021">
        <ele>57</ele>
        <time>2016-08-15T20:19:59.000Z</time>
      </trkpt>
      <trkpt lat="48.8364" lon="2.35966">
        <ele>57.599998474121</ele>
        <time>2016-08-15T20:20:12.000Z</time>
      </trkpt>
      <trkpt lat="48.83649" lon="2.35937">
        <ele>58.400001525879</ele>
        <time>2016-08-15T20:21:14.000Z</time>
      </trkpt>
      <trkpt lat="48.83652" lon="2.35935">
        <ele>58.400001525879</ele>
        <time>2016-08-15T20:21:17.000Z</time>
      </trkpt>
      <trkpt lat="48.83689" lon="2.35895">
        <ele>59.200000762939</ele>
        <time>2016-08-15T20:21:30.000Z</time>
      </trkpt>
      <trkpt lat="48.8372" lon="2.35863">
        <ele>60</ele>
        <time>2016-08-15T20:21:37.000Z</time>
      </trkpt>
      <trkpt lat="48.83752" lon="2.35814">
        <ele>61.400001525879</ele>
        <time>2016-08-15T20:21:43.000Z</time>
      </trkpt>
      <trkpt lat="48.83794" lon="2.35768">
        <ele>56.799999237061</ele>
        <time>2016-08-15T20:21:50.000Z</time>
      </trkpt>
      <trkpt lat="48.83834" lon="2.35726">
        <ele>51.400001525879</ele>
        <time>2016-08-15T20:21:59.000Z</time>
      </trkpt>
      <trkpt lat="48.83851" lon="2.35705">
        <ele>48.799999237061</ele>
        <time>2016-08-15T20:22:36.000Z</time>
      </trkpt>
      <trkpt lat="48.83895" lon="2.3569">
        <ele>46.799999237061</ele>
        <time>2016-08-15T20:22:53.000Z</time>
      </trkpt>
      <trkpt lat="48.83939" lon="2.35669">
        <ele>46</ele>
        <time>2016-08-15T20:23:07.000Z</time>
      </trkpt>
      <trkpt lat="48.83973" lon="2.35647">
        <ele>44.400001525879</ele>
        <time>2016-08-15T20:23:21.000Z</time>
      </trkpt>
      <trkpt lat="48.84019" lon="2.35621">
        <ele>44</ele>
        <time>2016-08-15T20:23:33.000Z</time>
      </trkpt>
      <trkpt lat="48.84064" lon="2.35603">
        <ele>42.799999237061</ele>
        <time>2016-08-15T20:23:42.000Z</time>
      </trkpt>
      <trkpt lat="48.84106" lon="2.35599">
        <ele>40.799999237061</ele>
        <time>2016-08-15T20:23:55.000Z</time>
      </trkpt>
      <trkpt lat="48.8414" lon="2.35587">
        <ele>40.799999237061</ele>
        <time>2016-08-15T20:24:04.000Z</time>
      </trkpt>
      <trkpt lat="48.84173" lon="2.35569">
        <ele>41.400001525879</ele>
        <time>2016-08-15T20:24:12.000Z</time>
      </trkpt>
      <trkpt lat="48.84214" lon="2.35557">
        <ele>43.400001525879</ele>
        <time>2016-08-15T20:24:20.000Z</time>
      </trkpt>
      <trkpt lat="48.84233" lon="2.35551">
        <ele>45</ele>
        <time>2016-08-15T20:24:24.000Z</time>
      </trkpt>
      <trkpt lat="48.84279" lon="2.35536">
        <ele>47.599998474121</ele>
        <time>2016-08-15T20:24:33.000Z</time>
      </trkpt>
      <trkpt lat="48.84323" lon="2.35514">
        <ele>49.799999237061</ele>
        <time>2016-08-15T20:24:42.000Z</time>
      </trkpt>
      <trkpt lat="48.84367" lon="2.35496">
        <ele>51.599998474121</ele>
        <time>2016-08-15T20:24:54.000Z</time>
      </trkpt>
      <trkpt lat="48.84402" lon="2.35483">
        <ele>50.200000762939</ele>
        <time>2016-08-15T20:25:03.000Z</time>
      </trkpt>
      <trkpt lat="48.84446" lon="2.35475">
        <ele>49.799999237061</ele>
        <time>2016-08-15T20:25:13.000Z</time>
      </trkpt>
      <trkpt lat="48.84494" lon="2.35471">
        <ele>50.599998474121</ele>
        <time>2016-08-15T20:25:25.000Z</time>
      </trkpt>
      <trkpt lat="48.84533" lon="2.35461">
        <ele>49.799999237061</ele>
        <time>2016-08-15T20:25:36.000Z</time>
      </trkpt>
      <trkpt lat="48.84581" lon="2.35451">
        <ele>49.200000762939</ele>
        <time>2016-08-15T20:25:47.000Z</time>
      </trkpt>
      <trkpt lat="48.84622" lon="2.35439">
        <ele>47.799999237061</ele>
        <time>2016-08-15T20:25:55.000Z</time>
      </trkpt>
      <trkpt lat="48.84662" lon="2.35405">
        <ele>44.599998474121</ele>
        <time>2016-08-15T20:26:05.000Z</time>
      </trkpt>
      <trkpt lat="48.84704" lon="2.35371">
        <ele>41.599998474121</ele>
        <time>2016-08-15T20:26:15.000Z</time>
      </trkpt>
      <trkpt lat="48.84733" lon="2.35329">
        <ele>40.400001525879</ele>
        <time>2016-08-15T20:27:09.000Z</time>
      </trkpt>
      <trkpt lat="48.8475" lon="2.35264">
        <ele>42</ele>
        <time>2016-08-15T20:27:21.000Z</time>
      </trkpt>
      <trkpt lat="48.84776" lon="2.35204">
        <ele>42</ele>
        <time>2016-08-15T20:27:31.000Z</time>
      </trkpt>
      <trkpt lat="48.84777" lon="2.35199">
        <ele>42</ele>
        <time>2016-08-15T20:27:32.000Z</time>
      </trkpt>
      <trkpt lat="48.84796" lon="2.35134">
        <ele>44.599998474121</ele>
        <time>2016-08-15T20:27:43.000Z</time>
      </trkpt>
      <trkpt lat="48.84802" lon="2.35101">
        <ele>46.799999237061</ele>
        <time>2016-08-15T20:27:48.000Z</time>
      </trkpt>
      <trkpt lat="48.84803" lon="2.35087">
        <ele>47.599998474121</ele>
        <time>2016-08-15T20:27:50.000Z</time>
      </trkpt>
      <trkpt lat="48.84819" lon="2.35021">
        <ele>50.200000762939</ele>
        <time>2016-08-15T20:28:03.000Z</time>
      </trkpt>
      <trkpt lat="48.84843" lon="2.34958">
        <ele>52.599998474121</ele>
        <time>2016-08-15T20:28:15.000Z</time>
      </trkpt>
      <trkpt lat="48.84865" lon="2.34895">
        <ele>55.799999237061</ele>
        <time>2016-08-15T20:28:26.000Z</time>
      </trkpt>
      <trkpt lat="48.84886" lon="2.3483">
        <ele>56.400001525879</ele>
        <time>2016-08-15T20:28:39.000Z</time>
      </trkpt>
      <trkpt lat="48.84905" lon="2.34763">
        <ele>54.599998474121</ele>
        <time>2016-08-15T20:28:51.000Z</time>
      </trkpt>
      <trkpt lat="48.84916" lon="2.34694">
        <ele>54.400001525879</ele>
        <time>2016-08-15T20:29:01.000Z</time>
      </trkpt>
      <trkpt lat="48.84932" lon="2.34622">
        <ele>52.799999237061</ele>
        <time>2016-08-15T20:29:09.000Z</time>
      </trkpt>
      <trkpt lat="48.84946" lon="2.34555">
        <ele>52.400001525879</ele>
        <time>2016-08-15T20:29:17.000Z</time>
      </trkpt>
      <trkpt lat="48.84955" lon="2.34529">
        <ele>53.799999237061</ele>
        <time>2016-08-15T20:29:21.000Z</time>
      </trkpt>
      <trkpt lat="48.8498" lon="2.34472">
        <ele>56.200000762939</ele>
        <time>2016-08-15T20:29:33.000Z</time>
      </trkpt>
      <trkpt lat="48.84995" lon="2.34404">
        <ele>55.599998474121</ele>
        <time>2016-08-15T20:29:47.000Z</time>
      </trkpt>
      <trkpt lat="48.84999" lon="2.34393">
        <ele>55.400001525879</ele>
        <time>2016-08-15T20:29:50.000Z</time>
      </trkpt>
      <trkpt lat="48.85015" lon="2.34387">
        <ele>54.400001525879</ele>
        <time>2016-08-15T20:29:54.000Z</time>
      </trkpt>
      <trkpt lat="48.85029" lon="2.34389">
        <ele>53.400001525879</ele>
        <time>2016-08-15T20:30:01.000Z</time>
      </trkpt>
      <trkpt lat="48.85027" lon="2.34383">
        <ele>53.599998474121</ele>
        <time>2016-08-15T20:30:03.000Z</time>
      </trkpt>
      <trkpt lat="48.85053" lon="2.34328">
        <ele>51.400001525879</ele>
        <time>2016-08-15T20:30:16.000Z</time>
      </trkpt>
      <trkpt lat="48.85057" lon="2.34301">
        <ele>50.799999237061</ele>
        <time>2016-08-15T20:30:23.000Z</time>
      </trkpt>
      <trkpt lat="48.85063" lon="2.34295">
        <ele>50.200000762939</ele>
        <time>2016-08-15T20:30:26.000Z</time>
      </trkpt>
      <trkpt lat="48.85066" lon="2.34295">
        <ele>50</ele>
        <time>2016-08-15T20:30:28.000Z</time>
      </trkpt>
      <trkpt lat="48.85111" lon="2.34305">
        <ele>47.799999237061</ele>
        <time>2016-08-15T20:30:42.000Z</time>
      </trkpt>
      <trkpt lat="48.85137" lon="2.34316">
        <ele>48.200000762939</ele>
        <time>2016-08-15T20:31:10.000Z</time>
      </trkpt>
      <trkpt lat="48.8515" lon="2.34322">
        <ele>48.200000762939</ele>
        <time>2016-08-15T20:31:13.000Z</time>
      </trkpt>
      <trkpt lat="48.85164" lon="2.34328">
        <ele>48.400001525879</ele>
        <time>2016-08-15T20:31:16.000Z</time>
      </trkpt>
      <trkpt lat="48.85177" lon="2.34338">
        <ele>48.799999237061</ele>
        <time>2016-08-15T20:31:19.000Z</time>
      </trkpt>
      <trkpt lat="48.85199" lon="2.34349">
        <ele>49.200000762939</ele>
        <time>2016-08-15T20:31:23.000Z</time>
      </trkpt>
      <trkpt lat="48.8525" lon="2.34371">
        <ele>50</ele>
        <time>2016-08-15T20:31:30.000Z</time>
      </trkpt>
      <trkpt lat="48.85287" lon="2.34386">
        <ele>49.200000762939</ele>
        <time>2016-08-15T20:31:35.000Z</time>
      </trkpt>
      <trkpt lat="48.85334" lon="2.344">
        <ele>45.400001525879</ele>
        <time>2016-08-15T20:31:42.000Z</time>
      </trkpt>
      <trkpt lat="48.85374" lon="2.34434">
        <ele>43.400001525879</ele>
        <time>2016-08-15T20:31:50.000Z</time>
      </trkpt>
      <trkpt lat="48.85412" lon="2.34468">
        <ele>42</ele>
        <time>2016-08-15T20:31:58.000Z</time>
      </trkpt>
      <trkpt lat="48.85422" lon="2.34477">
        <ele>41.400001525879</ele>
        <time>2016-08-15T20:32:00.000Z</time>
      </trkpt>
      <trkpt lat="48.85466" lon="2.34513">
        <ele>42.599998474121</ele>
        <time>2016-08-15T20:32:08.000Z</time>
      </trkpt>
      <trkpt lat="48.85508" lon="2.34546">
        <ele>45.200000762939</ele>
        <time>2016-08-15T20:32:16.000Z</time>
      </trkpt>
      <trkpt lat="48.85528" lon="2.34564">
        <ele>46.400001525879</ele>
        <time>2016-08-15T20:32:19.000Z</time>
      </trkpt>
      <trkpt lat="48.85572" lon="2.34596">
        <ele>47.599998474121</ele>
        <time>2016-08-15T20:32:25.000Z</time>
      </trkpt>
      <trkpt lat="48.85609" lon="2.34625">
        <ele>47.799999237061</ele>
        <time>2016-08-15T20:32:31.000Z</time>
      </trkpt>
      <trkpt lat="48.85623" lon="2.34654">
        <ele>46.599998474121</ele>
        <time>2016-08-15T20:32:34.000Z</time>
      </trkpt>
      <trkpt lat="48.85663" lon="2.34689">
        <ele>43.200000762939</ele>
        <time>2016-08-15T20:32:43.000Z</time>
      </trkpt>
      <trkpt lat="48.85706" lon="2.34715">
        <ele>40.799999237061</ele>
        <time>2016-08-15T20:32:57.000Z</time>
      </trkpt>
      <trkpt lat="48.85712" lon="2.34725">
        <ele>40.799999237061</ele>
        <time>2016-08-15T20:33:58.000Z</time>
      </trkpt>
      <trkpt lat="48.85727" lon="2.34754">
        <ele>40.400001525879</ele>
        <time>2016-08-15T20:34:06.000Z</time>
      </trkpt>
      <trkpt lat="48.8577" lon="2.34778">
        <ele>39.200000762939</ele>
        <time>2016-08-15T20:34:18.000Z</time>
      </trkpt>
      <trkpt lat="48.85778" lon="2.34782">
        <ele>39.799999237061</ele>
        <time>2016-08-15T20:34:20.000Z</time>
      </trkpt>
      <trkpt lat="48.85822" lon="2.34801">
        <ele>44.599998474121</ele>
        <time>2016-08-15T20:34:29.000Z</time>
      </trkpt>
      <trkpt lat="48.85845" lon="2.3481">
        <ele>46.799999237061</ele>
        <time>2016-08-15T20:34:33.000Z</time>
      </trkpt>
      <trkpt lat="48.85855" lon="2.34807">
        <ele>47.599998474121</ele>
        <time>2016-08-15T20:34:35.000Z</time>
      </trkpt>
      <trkpt lat="48.85862" lon="2.34798">
        <ele>47.599998474121</ele>
        <time>2016-08-15T20:34:37.000Z</time>
      </trkpt>
      <trkpt lat="48.85896" lon="2.34751">
        <ele>45.799999237061</ele>
        <time>2016-08-15T20:34:49.000Z</time>
      </trkpt>
      <trkpt lat="48.85935" lon="2.34709">
        <ele>45.599998474121</ele>
        <time>2016-08-15T20:35:03.000Z</time>
      </trkpt>
      <trkpt lat="48.8594" lon="2.34704">
        <ele>45.599998474121</ele>
        <time>2016-08-15T20:35:05.000Z</time>
      </trkpt>
      <trkpt lat="48.85953" lon="2.34709">
        <ele>45.599998474121</ele>
        <time>2016-08-15T20:36:01.000Z</time>
      </trkpt>
    </trkseg>
  </trk>
</gpx>